AA6206 / N695AE 7700 Squawk Report (27th of April, 2021)

Aircraft E145 Reg No. N695AE Age 16 years old
Model ERJ-145 Jet engines 2 First flight 09-11-04
Registered 22-11-17 Rollout 10-04 Delivered 02-12-04
Construction No. 14500870 Line No. N/A Series LR
ADSHEX A93D4E Airline name Envoy Air Owner Piedmont Airlines
Airfield based Philadelphia International~PA~N First tracked N/A

Flight history for N695AE

Route Flight No Date Playback
Philadelphia Intl (PHL) - Asheville Regional Airport (AVL) - Philadelphia Intl (PHL) AA6044 2021-05-15 14:23:00
Albany Intl (ALB) - Philadelphia Intl (PHL) AA6204 2021-05-15 11:27:00
Philadelphia Intl (PHL) - Albany Intl (ALB) N/A 2021-05-15 10:41:00
Louisville International Airport (SDF) - Philadelphia Intl (PHL) AA6010 2021-05-14 23:49:00
Chicago Ohare Intl (ORD) - Louisville International Airport (SDF) AA6276 2021-05-14 21:58:00
Mc Ghee Tyson (TYS) - Chicago Ohare Intl (ORD) AA6144 2021-05-14 19:18:00
Chicago Ohare Intl (ORD) - Mc Ghee Tyson (TYS) AA6238 2021-05-14 17:20:00
Evansville Regional (EVV) - Chicago Ohare Intl (ORD) AA6251 2021-05-14 13:31:00
Charlotte Douglas (CLT) - Evansville Regional (EVV) AA6048 2021-05-14 02:40:00
Charlotte Douglas (CLT) - Peoria Regional (PIA) AA5604 2021-05-14 01:10:00
Evansville Regional (EVV) - Charlotte Douglas (CLT) AA6247 2021-05-13 23:39:00
Chicago Ohare Intl (ORD) - Evansville Regional (EVV) AA6166 2021-05-13 21:05:00
Chicago Ohare Intl (ORD) - Wilmington Intl (ILM) - Chicago Ohare Intl (ORD) AA6080 2021-05-13 19:27:00
Albany Intl (ALB) - Chicago Ohare Intl (ORD) AA6179 2021-05-13 14:18:00
Philadelphia Intl (PHL) - Albany Intl (ALB) N/A 2021-05-13 01:24:00
UNV - Philadelphia Intl (PHL) N/A 2021-05-12 22:40:00
Philadelphia Intl (PHL) - University Park Airport (SCE) AA6248 2021-05-12 20:03:00
Philadelphia Intl (PHL) - Harrisburg Intl (MDT) - Philadelphia Intl (PHL) AA6135 2021-05-12 16:35:00
Piedmont Triad (GSO) - Philadelphia Intl (PHL) AA6019 2021-05-12 11:21:00
Charlotte Douglas (CLT) - Piedmont Triad (GSO) AA6015 2021-05-12 10:28:00
Time Lat Lon Altitude Heading Speed Vertical Rate
2021-04-27 01:06:05 GMT 35.226372 -80.940910 0 266 14 128
2021-04-27 01:06:04 GMT 35.226360 -80.941032 0 266 14 128
2021-04-27 01:06:02 GMT 35.226372 -80.940948 0 266 14 128
2021-04-27 01:06:01 GMT 35.226379 -80.940910 0 267 16 128
2021-04-27 01:05:59 GMT 35.226391 -80.940742 0 267 16 128
2021-04-27 01:05:58 GMT 35.226398 -80.940697 0 265 19 128
2021-04-27 01:05:57 GMT 35.226299 -80.940651 0 262 22 128
2021-04-27 01:05:56 GMT 35.226330 -80.940529 0 262 22 128
2021-04-27 01:05:55 GMT 35.226360 -80.940407 0 262 22 128
2021-04-27 01:05:53 GMT 35.226521 -80.940147 0 282 19 128
2021-04-27 01:05:52 GMT 35.226509 -80.940041 0 282 19 128
2021-04-27 01:05:51 GMT 35.226501 -80.939941 0 282 19 128
2021-04-27 01:05:50 GMT 35.226540 -80.939697 0 300 18 128
2021-04-27 01:05:48 GMT 35.226490 -80.939590 0 305 16 128
2021-04-27 01:05:47 GMT 35.226490 -80.939499 0 309 18 128
2021-04-27 01:05:46 GMT 35.226379 -80.939430 0 301 19 128
2021-04-27 01:05:45 GMT 35.226410 -80.939247 0 321 17 128
2021-04-27 01:05:44 GMT 35.226391 -80.939163 0 323 17 128
2021-04-27 01:05:42 GMT 35.226292 -80.939041 0 326 17 128
2021-04-27 01:05:41 GMT 35.226219 -80.938988 0 328 17 128
2021-04-27 01:05:40 GMT 35.226219 -80.938889 0 335 18 128
2021-04-27 01:05:39 GMT 35.226139 -80.938843 0 337 19 128
2021-04-27 01:05:38 GMT 35.226021 -80.938652 0 346 19 128
2021-04-27 01:05:36 GMT 35.225929 -80.938629 0 347 19 128
2021-04-27 01:05:35 GMT 35.225861 -80.938591 0 348 20 128
2021-04-27 01:05:34 GMT 35.225739 -80.938583 0 347 18 128
2021-04-27 01:05:32 GMT 35.225590 -80.938507 0 352 19 128
2021-04-27 01:05:31 GMT 35.225491 -80.938492 0 353 18 128
2021-04-27 01:05:30 GMT 35.225330 -80.938461 0 354 18 128
2021-04-27 01:05:28 GMT 35.225250 -80.938454 0 354 18 128
2021-04-27 01:05:27 GMT 35.225182 -80.938454 0 353 18 128
2021-04-27 01:05:26 GMT 35.225109 -80.938431 0 353 20 128
2021-04-27 01:05:24 GMT 35.224918 -80.938408 0 356 19 128
2021-04-27 01:05:23 GMT 35.224880 -80.938347 0 2 22 128
2021-04-27 01:05:22 GMT 35.224789 -80.938347 0 2 22 128
2021-04-27 01:05:20 GMT 35.224571 -80.938332 0 5 18 128
2021-04-27 01:05:19 GMT 35.224491 -80.938347 0 359 17 128
2021-04-27 01:05:18 GMT 35.224411 -80.938370 0 353 16 128
2021-04-27 01:05:17 GMT 35.224331 -80.938339 0 347 14 128
2021-04-27 01:05:16 GMT 35.224209 -80.938301 0 318 8 128
2021-04-27 01:05:14 GMT 35.224140 -80.938347 0 305 12 128
2021-04-27 01:05:13 GMT 35.224098 -80.938332 0 293 13 128
2021-04-27 01:05:12 GMT 35.224041 -80.938263 0 278 12 128
2021-04-27 01:05:10 GMT 35.223969 -80.938179 0 265 16 128
2021-04-27 01:05:09 GMT 35.223969 -80.938072 0 266 15 128
2021-04-27 01:05:08 GMT 35.223980 -80.938004 0 265 16 128
2021-04-27 01:05:07 GMT 35.223991 -80.937881 0 267 13 128
2021-04-27 01:05:05 GMT 35.223980 -80.937782 0 263 18 128
2021-04-27 01:05:04 GMT 35.223999 -80.937698 0 267 19 128
2021-04-27 01:05:03 GMT 35.223969 -80.937523 0 257 24 128
2021-04-27 01:05:01 GMT 35.223969 -80.937408 0 256 24 128
2021-04-27 01:05:00 GMT 35.223980 -80.937263 0 255 23 128
2021-04-27 01:04:59 GMT 35.224041 -80.937019 0 265 20 128
2021-04-27 01:04:58 GMT 35.224030 -80.936897 0 265 19 128
2021-04-27 01:04:56 GMT 35.224049 -80.936821 0 273 19 128
2021-04-27 01:04:55 GMT 35.224079 -80.936737 0 285 20 128
2021-04-27 01:04:53 GMT 35.224049 -80.936508 0 301 17 128
2021-04-27 01:04:52 GMT 35.224018 -80.936417 0 308 16 128
2021-04-27 01:04:51 GMT 35.223969 -80.936348 0 314 15 128
2021-04-27 01:04:50 GMT 35.223888 -80.936249 0 319 11 128
2021-04-27 01:04:48 GMT 35.223831 -80.936157 0 336 13 128
2021-04-27 01:04:47 GMT 35.223759 -80.936119 0 341 12 128
2021-04-27 01:04:46 GMT 35.223709 -80.936089 0 345 14 128
2021-04-27 01:04:44 GMT 35.223591 -80.936012 0 1 17 128
2021-04-27 01:04:43 GMT 35.223541 -80.936050 0 354 21 128
2021-04-27 01:04:42 GMT 35.223431 -80.936012 0 359 20 128
2021-04-27 01:04:41 GMT 35.223320 -80.936028 0 354 20 128
2021-04-27 01:04:40 GMT 35.223141 -80.936012 0 356 25 128
2021-04-27 01:04:38 GMT 35.223068 -80.935982 0 358 29 128
2021-04-27 01:04:37 GMT 35.222950 -80.935989 0 356 31 128
2021-04-27 01:04:36 GMT 35.222672 -80.935966 0 355 34 128
2021-04-27 01:04:34 GMT 35.222500 -80.935951 0 356 33 128
2021-04-27 01:04:33 GMT 35.222351 -80.935951 0 354 34 128
2021-04-27 01:04:32 GMT 35.222198 -80.935913 0 357 34 128
2021-04-27 01:04:31 GMT 35.221920 -80.935898 0 356 37 128
2021-04-27 01:04:29 GMT 35.221748 -80.935867 0 357 37 128
2021-04-27 01:04:28 GMT 35.221569 -80.935890 0 354 36 128
2021-04-27 01:04:26 GMT 35.221249 -80.935852 0 354 34 128
2021-04-27 01:04:25 GMT 35.221069 -80.935829 0 355 30 128
2021-04-27 01:04:24 GMT 35.220940 -80.935806 0 355 32 128
2021-04-27 01:04:23 GMT 35.220798 -80.935822 0 352 32 128
2021-04-27 01:04:22 GMT 35.220490 -80.935783 0 351 28 128
2021-04-27 01:04:20 GMT 35.220348 -80.935791 0 349 27 128
2021-04-27 01:04:18 GMT 35.220058 -80.935753 0 348 19 128
2021-04-27 01:04:17 GMT 35.220001 -80.935753 0 352 22 128
2021-04-27 01:04:16 GMT 35.219891 -80.935730 0 356 21 128
2021-04-27 01:04:15 GMT 35.219719 -80.935707 0 7 22 128
2021-04-27 01:04:13 GMT 35.219631 -80.935692 0 16 23 128
2021-04-27 01:04:12 GMT 35.219509 -80.935707 0 25 22 128
2021-04-27 01:04:11 GMT 35.219398 -80.935730 0 34 21 128
2021-04-27 01:04:09 GMT 35.219212 -80.935799 0 52 24 128
2021-04-27 01:04:08 GMT 35.219139 -80.935913 0 51 23 128
2021-04-27 01:04:06 GMT 35.219002 -80.936119 0 50 21 128
2021-04-27 01:04:05 GMT 35.218941 -80.936256 0 41 18 128
2021-04-27 01:04:04 GMT 35.218861 -80.936317 0 45 17 128
2021-04-27 01:04:03 GMT 35.218811 -80.936401 0 50 18 128
2021-04-27 01:04:01 GMT 35.218681 -80.936508 0 52 17 128
2021-04-27 01:04:00 GMT 35.218632 -80.936607 0 45 15 128
2021-04-27 01:03:59 GMT 35.218571 -80.936684 0 40 14 128
2021-04-27 01:03:58 GMT 35.218521 -80.936737 0 34 13 128
2021-04-27 01:03:56 GMT 35.218441 -80.936859 0 12 13 128
2021-04-27 01:03:55 GMT 35.218369 -80.936882 0 9 13 128
2021-04-27 01:03:54 GMT 35.218342 -80.936928 0 357 17 128
2021-04-27 01:03:53 GMT 35.218262 -80.936928 0 354 17 128
2021-04-27 01:03:51 GMT 35.218090 -80.936913 0 357 18 128
2021-04-27 01:03:50 GMT 35.218029 -80.936913 0 356 21 128
2021-04-27 01:03:49 GMT 35.217880 -80.936890 0 359 24 128
2021-04-27 01:03:47 GMT 35.217758 -80.936890 0 357 24 128
2021-04-27 01:03:45 GMT 35.217529 -80.936867 0 358 22 128
2021-04-27 01:03:44 GMT 35.217449 -80.936882 0 355 25 128
2021-04-27 01:03:43 GMT 35.217312 -80.936882 0 353 23 128
2021-04-27 01:03:42 GMT 35.217201 -80.936859 0 353 21 128
2021-04-27 01:03:41 GMT 35.217098 -80.936829 0 357 21 128
2021-04-27 01:03:39 GMT 35.216911 -80.936813 0 0 22 128
2021-04-27 01:03:38 GMT 35.216801 -80.936813 0 0 20 128
2021-04-27 01:03:37 GMT 35.216702 -80.936829 0 355 21 128
2021-04-27 01:03:36 GMT 35.216599 -80.936821 0 353 21 128
2021-04-27 01:03:34 GMT 35.216400 -80.936783 0 356 19 128
2021-04-27 01:03:33 GMT 35.216320 -80.936783 0 355 20 128
2021-04-27 01:03:32 GMT 35.216221 -80.936768 0 354 20 128
2021-04-27 01:03:30 GMT 35.216042 -80.936737 0 0 19 128
2021-04-27 01:03:29 GMT 35.215939 -80.936737 0 358 18 128
2021-04-27 01:03:28 GMT 35.215881 -80.936760 0 353 21 128
2021-04-27 01:03:27 GMT 35.215691 -80.936737 0 352 20 128
2021-04-27 01:03:25 GMT 35.215599 -80.936707 0 356 20 128
2021-04-27 01:03:24 GMT 35.215488 -80.936707 0 354 19 128
2021-04-27 01:03:23 GMT 35.215401 -80.936691 0 357 18 128
2021-04-27 01:03:21 GMT 35.215240 -80.936691 0 352 18 128
2021-04-27 01:03:20 GMT 35.215160 -80.936684 0 354 19 128
2021-04-27 01:03:19 GMT 35.215099 -80.936653 0 357 23 128
2021-04-27 01:03:18 GMT 35.215000 -80.936661 0 355 23 128
2021-04-27 01:03:16 GMT 35.214802 -80.936630 0 357 25 128
2021-04-27 01:03:15 GMT 35.214691 -80.936638 0 353 25 128
2021-04-27 01:03:14 GMT 35.214569 -80.936623 0 355 24 128
2021-04-27 01:03:13 GMT 35.214458 -80.936607 0 356 24 128
2021-04-27 01:03:11 GMT 35.214230 -80.936577 0 359 23 128
2021-04-27 01:03:10 GMT 35.214119 -80.936592 0 357 22 128
2021-04-27 01:03:09 GMT 35.214008 -80.936592 0 353 21 128
2021-04-27 01:03:08 GMT 35.213921 -80.936592 0 351 22 128
2021-04-27 01:03:06 GMT 35.213699 -80.936523 0 1 20 128
2021-04-27 01:03:05 GMT 35.213600 -80.936523 0 0 19 128
2021-04-27 01:03:04 GMT 35.213509 -80.936546 0 353 19 128
2021-04-27 01:03:03 GMT 35.213421 -80.936539 0 353 19 128
2021-04-27 01:03:01 GMT 35.213242 -80.936523 0 356 17 128
2021-04-27 01:03:00 GMT 35.213161 -80.936501 0 357 16 128
2021-04-27 01:02:59 GMT 35.213070 -80.936501 0 356 15 128
2021-04-27 01:02:57 GMT 35.212921 -80.936501 0 353 14 128
2021-04-27 01:02:56 GMT 35.212860 -80.936478 0 357 15 128
2021-04-27 01:02:55 GMT 35.212780 -80.936493 0 355 14 128
2021-04-27 01:02:53 GMT 35.212650 -80.936462 0 0 14 128
2021-04-27 01:02:52 GMT 35.212601 -80.936432 0 359 15 128
2021-04-27 01:02:51 GMT 35.212440 -80.936508 0 326 11 128
2021-04-27 01:02:49 GMT 35.212421 -80.936470 0 327 13 128
2021-04-27 01:02:48 GMT 35.212360 -80.936417 0 317 11 128
2021-04-27 01:02:46 GMT 35.212261 -80.936394 0 286 13 128
2021-04-27 01:02:45 GMT 35.212181 -80.936340 0 272 12 128
2021-04-27 01:02:44 GMT 35.212170 -80.936234 0 271 13 128
2021-04-27 01:02:42 GMT 35.212170 -80.936150 0 272 13 128
2021-04-27 01:02:41 GMT 35.212170 -80.936089 0 274 15 128
2021-04-27 01:02:40 GMT 35.212181 -80.936020 0 278 16 128
2021-04-27 01:02:38 GMT 35.212158 -80.935837 0 271 14 128
2021-04-27 01:02:37 GMT 35.212158 -80.935799 0 269 16 128
2021-04-27 01:02:36 GMT 35.212158 -80.935753 0 266 18 128
2021-04-27 01:02:34 GMT 35.212181 -80.935516 0 252 12 128
2021-04-27 01:02:33 GMT 35.212181 -80.935471 0 236 13 128
2021-04-27 01:02:32 GMT 35.212212 -80.935371 0 222 11 128
2021-04-27 01:02:31 GMT 35.212238 -80.935303 0 212 10 128
2021-04-27 01:02:29 GMT 35.212292 -80.935204 0 189 11 128
2021-04-27 01:02:28 GMT 35.212341 -80.935173 0 184 12 128
2021-04-27 01:02:27 GMT 35.212391 -80.935173 0 185 13 128
2021-04-27 01:02:26 GMT 35.212460 -80.935158 0 185 13 128
2021-04-27 01:02:24 GMT 35.212582 -80.935127 0 178 14 128
2021-04-27 01:02:23 GMT 35.212639 -80.935127 0 176 15 128
2021-04-27 01:02:22 GMT 35.212711 -80.935127 0 176 15 128
2021-04-27 01:02:21 GMT 35.212780 -80.935150 0 178 15 128
2021-04-27 01:02:19 GMT 35.212910 -80.935150 0 176 17 128
2021-04-27 01:02:18 GMT 35.213001 -80.935143 0 172 16 128
2021-04-27 01:02:17 GMT 35.213169 -80.935158 0 173 12 128
2021-04-27 01:02:15 GMT 35.213219 -80.935173 0 174 12 128
2021-04-27 01:02:14 GMT 35.213268 -80.935158 0 179 12 128
2021-04-27 01:02:13 GMT 35.213348 -80.935181 0 207 8 128
2021-04-27 01:02:11 GMT 35.213459 -80.935211 0 333 4 128
2021-04-27 01:02:09 GMT 35.213619 -80.935249 0 346 1 128
2021-04-27 01:02:08 GMT 35.213619 -80.935242 0 347 1 128
2021-04-27 01:02:06 GMT 35.213612 -80.935242 0 348 1 128
2021-04-27 01:02:05 GMT 35.213619 -80.935226 0 351 2 128
2021-04-27 01:02:04 GMT 35.213619 -80.935257 0 351 1 128
2021-04-27 01:02:02 GMT 35.213699 -80.935211 0 351 1 128
2021-04-27 01:02:01 GMT 35.213680 -80.935188 0 351 0 128
2021-04-27 01:01:59 GMT 35.213680 -80.935181 0 352 0 128
2021-04-27 01:01:58 GMT 35.213680 -80.935188 0 352 0 128
2021-04-27 01:01:55 GMT 35.213650 -80.935204 0 352 0 128
2021-04-27 01:01:54 GMT 35.213661 -80.935204 0 352 0 128
2021-04-27 01:01:51 GMT 35.213669 -80.935204 0 352 0 128
2021-04-27 01:01:50 GMT 35.213669 -80.935211 0 352 0 128
2021-04-27 01:01:49 GMT 35.213650 -80.935211 0 353 0 128
2021-04-27 01:01:48 GMT 35.213669 -80.935204 0 353 0 128
2021-04-27 01:01:46 GMT 35.213669 -80.935204 0 353 0 128
2021-04-27 01:01:45 GMT 35.213692 -80.935211 0 353 1 128
2021-04-27 01:01:44 GMT 35.213680 -80.935211 0 353 1 128
2021-04-27 01:01:43 GMT 35.213650 -80.935219 0 353 1 128
2021-04-27 01:01:41 GMT 35.213669 -80.935211 0 353 0 128
2021-04-27 01:01:40 GMT 35.213650 -80.935211 0 354 0 128
2021-04-27 01:01:37 GMT 35.213669 -80.935211 0 354 0 128
2021-04-27 01:01:36 GMT 35.213650 -80.935211 0 354 0 128
2021-04-27 01:01:35 GMT 35.213650 -80.935158 0 354 1 128
2021-04-27 01:01:34 GMT 35.213669 -80.935120 0 352 3 128
2021-04-27 01:01:33 GMT 35.213680 -80.935181 0 351 1 128
2021-04-27 01:01:31 GMT 35.213680 -80.935188 0 351 1 128
2021-04-27 01:01:29 GMT 35.213680 -80.935226 0 353 1 128
2021-04-27 01:01:26 GMT 35.213661 -80.935181 0 349 2 128
2021-04-27 01:01:24 GMT 35.213669 -80.935188 0 349 2 128
2021-04-27 01:01:23 GMT 35.213680 -80.935204 0 349 1 128
2021-04-27 01:01:22 GMT 35.213699 -80.935211 0 349 0 128
2021-04-27 01:01:17 GMT 35.213692 -80.935211 0 350 0 128
2021-04-27 01:01:15 GMT 35.213711 -80.935219 0 350 0 128
2021-04-27 01:01:14 GMT 35.213699 -80.935211 0 350 0 128
2021-04-27 01:01:11 GMT 35.213692 -80.935211 0 350 0 128
2021-04-27 01:01:10 GMT 35.213692 -80.935204 0 350 0 128
2021-04-27 01:01:09 GMT 35.213699 -80.935204 0 350 0 128
2021-04-27 01:01:07 GMT 35.213680 -80.935211 0 350 0 128
2021-04-27 01:01:05 GMT 35.213692 -80.935242 0 350 1 128
2021-04-27 01:01:04 GMT 35.213692 -80.935226 0 350 2 128
2021-04-27 01:01:01 GMT 35.213650 -80.935204 0 357 2 128
2021-04-27 01:01:00 GMT 35.213638 -80.935211 0 358 2 128
2021-04-27 01:00:59 GMT 35.213692 -80.935204 0 358 0 128
2021-04-27 01:00:57 GMT 35.213692 -80.935204 0 358 0 128
2021-04-27 01:00:56 GMT 35.213699 -80.935188 0 358 1 128
2021-04-27 01:00:55 GMT 35.213699 -80.935204 0 358 0 128
2021-04-27 01:00:51 GMT 35.213692 -80.935204 0 359 0 128
2021-04-27 01:00:50 GMT 35.213680 -80.935181 0 359 1 128
2021-04-27 01:00:49 GMT 35.213692 -80.935242 0 359 1 128
2021-04-27 01:00:48 GMT 35.213680 -80.935173 0 359 2 128
2021-04-27 01:00:47 GMT 35.213680 -80.935188 0 359 1 128
2021-04-27 01:00:45 GMT 35.213661 -80.935173 0 357 2 128
2021-04-27 01:00:44 GMT 35.213680 -80.935181 0 357 1 128
2021-04-27 01:00:43 GMT 35.213699 -80.935204 0 357 0 128
2021-04-27 01:00:40 GMT 35.213718 -80.935219 0 357 0 128
2021-04-27 01:00:39 GMT 35.213711 -80.935211 0 357 0 128
2021-04-27 01:00:37 GMT 35.213711 -80.935211 0 357 1 128
2021-04-27 01:00:35 GMT 35.213749 -80.935204 0 357 2 128
2021-04-27 01:00:34 GMT 35.213741 -80.935188 0 357 2 128
2021-04-27 01:00:32 GMT 35.213711 -80.935188 0 356 2 128
2021-04-27 01:00:31 GMT 35.213680 -80.935211 0 356 0 128
2021-04-27 01:00:30 GMT 35.213692 -80.935211 0 356 1 128
2021-04-27 01:00:29 GMT 35.213669 -80.935219 0 356 0 128
2021-04-27 01:00:26 GMT 35.213680 -80.935219 0 356 0 128
2021-04-27 01:00:23 GMT 35.213680 -80.935211 0 356 0 128
2021-04-27 01:00:21 GMT 35.213650 -80.935219 0 356 0 128
2021-04-27 01:00:20 GMT 35.213661 -80.935211 0 357 0 128
2021-04-27 01:00:18 GMT 35.213680 -80.935211 0 357 0 128
2021-04-27 01:00:16 GMT 35.213661 -80.935219 0 357 1 128
2021-04-27 01:00:15 GMT 35.213661 -80.935204 0 357 1 128
2021-04-27 01:00:14 GMT 35.213680 -80.935204 0 357 0 128
2021-04-27 01:00:12 GMT 35.213692 -80.935204 0 357 1 128
2021-04-27 01:00:11 GMT 35.213680 -80.935211 0 357 0 128
2021-04-27 01:00:10 GMT 35.213680 -80.935219 0 357 1 128
2021-04-27 01:00:09 GMT 35.213730 -80.935211 0 358 2 128
2021-04-27 01:00:07 GMT 35.213692 -80.935204 0 358 0 128
2021-04-27 01:00:06 GMT 35.213669 -80.935204 0 358 0 128
2021-04-27 01:00:04 GMT 35.213680 -80.935204 0 358 0 128
2021-04-27 01:00:02 GMT 35.213650 -80.935219 0 358 0 128
2021-04-27 01:00:01 GMT 35.213650 -80.935211 0 358 0 128
2021-04-27 01:00:00 GMT 35.213661 -80.935204 0 358 0 128
2021-04-27 00:59:57 GMT 35.213680 -80.935204 0 358 0 128
2021-04-27 00:59:56 GMT 35.213650 -80.935204 0 358 1 128
2021-04-27 00:59:54 GMT 35.213669 -80.935204 0 358 0 128
2021-04-27 00:59:52 GMT 35.213680 -80.935204 0 358 0 128
2021-04-27 00:59:51 GMT 35.213669 -80.935219 0 359 1 128
2021-04-27 00:59:48 GMT 35.213650 -80.935219 0 5 2 128
2021-04-27 00:59:47 GMT 35.213661 -80.935219 0 5 2 128
2021-04-27 00:59:46 GMT 35.213650 -80.935204 0 4 2 128
2021-04-27 00:59:44 GMT 35.213680 -80.935204 0 4 0 128
2021-04-27 00:59:42 GMT 35.213699 -80.935211 0 4 0 128
2021-04-27 00:59:41 GMT 35.213718 -80.935211 0 4 0 128
2021-04-27 00:59:38 GMT 35.213699 -80.935204 0 4 0 128
2021-04-27 00:59:37 GMT 35.213711 -80.935219 0 4 0 128
2021-04-27 00:59:36 GMT 35.213730 -80.935219 0 4 0 128
2021-04-27 00:59:34 GMT 35.213699 -80.935211 0 5 0 128
2021-04-27 00:59:32 GMT 35.213692 -80.935211 0 5 0 128
2021-04-27 00:59:31 GMT 35.213692 -80.935204 0 5 0 128
2021-04-27 00:59:30 GMT 35.213711 -80.935226 0 5 1 128
2021-04-27 00:59:28 GMT 35.213711 -80.935226 0 6 1 128
2021-04-27 00:59:27 GMT 35.213699 -80.935219 0 7 1 128
2021-04-27 00:59:24 GMT 35.213718 -80.935219 0 8 2 128
2021-04-27 00:59:22 GMT 35.213730 -80.935181 0 9 2 128
2021-04-27 00:59:21 GMT 35.213692 -80.935211 0 9 1 128
2021-04-27 00:59:20 GMT 35.213650 -80.935211 0 9 0 128
2021-04-27 00:59:19 GMT 35.213661 -80.935204 0 9 0 128
2021-04-27 00:59:17 GMT 35.213661 -80.935204 0 9 0 128
2021-04-27 00:59:16 GMT 35.213638 -80.935219 0 5 1 128
2021-04-27 00:59:15 GMT 35.213638 -80.935211 0 3 1 128
2021-04-27 00:59:12 GMT 35.213669 -80.935219 0 0 0 128
2021-04-27 00:59:11 GMT 35.213680 -80.935219 0 2 1 128
2021-04-27 00:59:09 GMT 35.213730 -80.935188 0 2 1 128
2021-04-27 00:59:07 GMT 35.213718 -80.935188 0 2 1 128
2021-04-27 00:59:06 GMT 35.213718 -80.935249 0 2 2 128
2021-04-27 00:59:04 GMT 35.213699 -80.935242 0 2 2 128
2021-04-27 00:59:03 GMT 35.213711 -80.935204 0 3 2 128
2021-04-27 00:59:02 GMT 35.213680 -80.935219 0 3 1 128
2021-04-27 00:59:00 GMT 35.213650 -80.935211 0 3 0 128
2021-04-27 00:58:59 GMT 35.213661 -80.935211 0 3 0 128
2021-04-27 00:58:57 GMT 35.213650 -80.935204 0 3 0 128
2021-04-27 00:58:55 GMT 35.213661 -80.935188 0 3 0 128
2021-04-27 00:58:52 GMT 35.213680 -80.935204 0 5 0 128
2021-04-27 00:58:50 GMT 35.213680 -80.935204 0 5 0 128
2021-04-27 00:58:49 GMT 35.213692 -80.935181 0 5 0 128
2021-04-27 00:58:47 GMT 35.213680 -80.935173 0 5 0 128
2021-04-27 00:58:45 GMT 35.213680 -80.935219 0 5 0 128
2021-04-27 00:58:44 GMT 35.213680 -80.935211 0 5 0 128
2021-04-27 00:58:43 GMT 35.213692 -80.935219 0 5 1 128
2021-04-27 00:58:41 GMT 35.213699 -80.935211 0 6 1 128
2021-04-27 00:58:40 GMT 35.213661 -80.935204 0 6 0 128
2021-04-27 00:58:39 GMT 35.213669 -80.935204 0 6 0 128
2021-04-27 00:58:37 GMT 35.213680 -80.935188 0 6 0 128
2021-04-27 00:58:36 GMT 35.213680 -80.935204 0 6 1 128
2021-04-27 00:58:35 GMT 35.213661 -80.935211 0 6 1 128
2021-04-27 00:58:34 GMT 35.213631 -80.935188 0 6 2 128
2021-04-27 00:58:32 GMT 35.213669 -80.935188 0 2 1 128
2021-04-27 00:58:31 GMT 35.213699 -80.935219 0 1 0 128
2021-04-27 00:58:30 GMT 35.213711 -80.935211 0 1 0 128
2021-04-27 00:58:27 GMT 35.213699 -80.935204 0 1 0 128
2021-04-27 00:58:26 GMT 35.213718 -80.935219 0 1 0 128
2021-04-27 00:58:25 GMT 35.213699 -80.935211 0 1 0 128
2021-04-27 00:58:24 GMT 35.213692 -80.935188 0 1 0 128
2021-04-27 00:58:20 GMT 35.213692 -80.935188 0 1 0 128
2021-04-27 00:58:18 GMT 35.213680 -80.935188 0 1 0 128
2021-04-27 00:58:17 GMT 35.213680 -80.935204 0 1 0 128
2021-04-27 00:58:13 GMT 35.213680 -80.935188 0 3 0 128
2021-04-27 00:58:12 GMT 35.213692 -80.935173 0 4 0 128
2021-04-27 00:58:11 GMT 35.213692 -80.935181 0 4 0 128
2021-04-27 00:58:10 GMT 35.213699 -80.935188 0 4 0 128
2021-04-27 00:58:08 GMT 35.213699 -80.935188 0 4 0 128
2021-04-27 00:58:06 GMT 35.213692 -80.935188 0 4 2 128
2021-04-27 00:58:05 GMT 35.213692 -80.935173 0 4 0 128
2021-04-27 00:58:02 GMT 35.213680 -80.935173 0 4 0 128
2021-04-27 00:58:01 GMT 35.213669 -80.935181 0 4 0 128
2021-04-27 00:58:00 GMT 35.213680 -80.935173 0 1 1 128
2021-04-27 00:57:59 GMT 35.213680 -80.935188 0 0 1 128
2021-04-27 00:57:57 GMT 35.213692 -80.935181 0 3 4 128
2021-04-27 00:57:56 GMT 35.213699 -80.935181 0 355 5 128
2021-04-27 00:57:55 GMT 35.213730 -80.935181 0 324 6 128
2021-04-27 00:57:54 GMT 35.213699 -80.935204 0 192 5 128
2021-04-27 00:57:52 GMT 35.213638 -80.935211 0 192 6 128
2021-04-27 00:57:51 GMT 35.213692 -80.935226 575 192 2 128
2021-04-27 00:57:50 GMT 35.213718 -80.935242 575 182 5 128
2021-04-27 00:57:49 GMT 35.213791 -80.935204 575 172 16 128
2021-04-27 00:57:47 GMT 35.213860 -80.935219 575 175 23 128
2021-04-27 00:57:46 GMT 35.213959 -80.935219 575 175 28 128
2021-04-27 00:57:44 GMT 35.214218 -80.935249 575 176 43 128
2021-04-27 00:57:43 GMT 35.214409 -80.935249 575 175 51 128
2021-04-27 00:57:41 GMT 35.214859 -80.935280 575 174 69 -32
2021-04-27 00:57:40 GMT 35.215141 -80.935318 575 175 78 -32
2021-04-27 00:57:39 GMT 35.215469 -80.935364 575 175 84 -32
2021-04-27 00:57:38 GMT 35.215820 -80.935402 575 176 92 -32
2021-04-27 00:57:36 GMT 35.216599 -80.935463 575 176 109 -32
2021-04-27 00:57:35 GMT 35.217091 -80.935516 575 176 114 -32
2021-04-27 00:57:34 GMT 35.217560 -80.935532 575 176 121 -32
2021-04-27 00:57:33 GMT 35.218071 -80.935562 575 175 127 -32
2021-04-27 00:57:31 GMT 35.219238 -80.935692 575 176 130 32
2021-04-27 00:57:30 GMT 35.219841 -80.935738 575 176 130 32
2021-04-27 00:57:29 GMT 35.220428 -80.935783 575 175 132 32
2021-04-27 00:57:27 GMT 35.221649 -80.935890 700 176 134 32
2021-04-27 00:57:26 GMT 35.222240 -80.935944 700 176 138 -1824
2021-04-27 00:57:25 GMT 35.222900 -80.935959 700 175 135 -1824
2021-04-27 00:57:23 GMT 35.224098 -80.936096 700 176 144 -1824
2021-04-27 00:57:22 GMT 35.224739 -80.936150 700 175 148 -1824
2021-04-27 00:57:21 GMT 35.225460 -80.936234 700 177 135 -1824
2021-04-27 00:57:19 GMT 35.227348 -80.936401 700 176 139 -1824
2021-04-27 00:57:17 GMT 35.228008 -80.936447 700 178 136 -1824
2021-04-27 00:57:15 GMT 35.229301 -80.936501 700 176 132 -1824
2021-04-27 00:57:14 GMT 35.229900 -80.936539 875 177 133 -1824
2021-04-27 00:57:13 GMT 35.230499 -80.936569 875 176 137 -1824
2021-04-27 00:57:12 GMT 35.231140 -80.936607 875 176 138 -1824
2021-04-27 00:57:10 GMT 35.232391 -80.936729 875 176 139 -1824
2021-04-27 00:57:09 GMT 35.233028 -80.936813 875 177 138 -1824
2021-04-27 00:57:08 GMT 35.233662 -80.936798 875 176 140 -1824
2021-04-27 00:57:07 GMT 35.234970 -80.936890 875 175 137 -1664
2021-04-27 00:57:05 GMT 35.235538 -80.937012 875 178 143 -1664
2021-04-27 00:57:03 GMT 35.236881 -80.936996 875 175 142 -1664
2021-04-27 00:57:02 GMT 35.237518 -80.937134 900 177 142 -256
2021-04-27 00:57:00 GMT 35.238819 -80.937233 1,000 177 141 64
2021-04-27 00:56:59 GMT 35.239510 -80.937218 1,000 175 139 64
2021-04-27 00:56:58 GMT 35.240181 -80.937248 1,000 174 139 -736
2021-04-27 00:56:57 GMT 35.241402 -80.937469 1,000 176 147 -736
2021-04-27 00:56:55 GMT 35.242081 -80.937492 1,100 176 148 -736
2021-04-27 00:56:54 GMT 35.242779 -80.937523 1,100 175 148 -736
2021-04-27 00:56:53 GMT 35.243359 -80.937653 1,100 177 156 -736
2021-04-27 00:56:51 GMT 35.244740 -80.937714 1,100 175 161 -736
2021-04-27 00:56:50 GMT 35.245522 -80.937737 1,100 174 158 -736
2021-04-27 00:56:49 GMT 35.246170 -80.937820 1,100 175 164 -736
2021-04-27 00:56:47 GMT 35.247749 -80.938026 1,100 178 150 -736
2021-04-27 00:56:46 GMT 35.248421 -80.937943 1,200 174 158 -736
2021-04-27 00:56:45 GMT 35.249111 -80.938042 1,200 176 160 -736
2021-04-27 00:56:44 GMT 35.250660 -80.938179 1,200 176 154 -736
2021-04-27 00:56:42 GMT 35.251362 -80.938263 1,200 177 156 -736
2021-04-27 00:56:41 GMT 35.252060 -80.938263 1,275 176 159 -736
2021-04-27 00:56:40 GMT 35.252850 -80.938301 1,275 175 154 -736
2021-04-27 00:56:38 GMT 35.254250 -80.938469 1,275 177 159 -736
2021-04-27 00:56:37 GMT 35.254910 -80.938507 1,275 177 164 -736
2021-04-27 00:56:36 GMT 35.255539 -80.938553 1,275 176 173 -736
2021-04-27 00:56:34 GMT 35.257198 -80.938637 1,300 174 165 -736
2021-04-27 00:56:33 GMT 35.257992 -80.938713 1,300 174 162 -736
2021-04-27 00:56:32 GMT 35.258629 -80.938858 1,500 176 168 -736
2021-04-27 00:56:30 GMT 35.260201 -80.939003 1,500 176 165 -736
2021-04-27 00:56:29 GMT 35.261002 -80.939003 1,500 175 162 -736
2021-04-27 00:56:28 GMT 35.261749 -80.939049 1,500 174 161 -736
2021-04-27 00:56:26 GMT 35.263222 -80.939323 1,500 177 161 -736
2021-04-27 00:56:25 GMT 35.263981 -80.939323 1,500 175 160 -736
2021-04-27 00:56:24 GMT 35.264702 -80.939400 1,500 176 161 -736
2021-04-27 00:56:22 GMT 35.266159 -80.939499 1,500 176 166 -736
2021-04-27 00:56:21 GMT 35.266949 -80.939590 1,500 176 164 -736
2021-04-27 00:56:20 GMT 35.267712 -80.939636 1,500 176 164 -736
2021-04-27 00:56:19 GMT 35.269230 -80.939728 1,700 176 164 -736
2021-04-27 00:56:17 GMT 35.270012 -80.939796 1,700 176 161 -736
2021-04-27 00:56:16 GMT 35.270691 -80.939857 1,700 176 166 -736
2021-04-27 00:56:15 GMT 35.271469 -80.939903 1,700 176 165 -736
2021-04-27 00:56:14 GMT 35.272949 -80.940041 1,700 177 168 -736
2021-04-27 00:56:12 GMT 35.273731 -80.940063 1,700 176 168 -736
2021-04-27 00:56:11 GMT 35.274540 -80.940071 1,700 174 164 -736
2021-04-27 00:56:10 GMT 35.275341 -80.940140 1,700 175 162 -736
2021-04-27 00:56:08 GMT 35.276779 -80.940231 1,700 175 168 -736
2021-04-27 00:56:07 GMT 35.277592 -80.940277 1,700 174 166 -736
2021-04-27 00:56:06 GMT 35.278358 -80.940399 1,700 176 166 -160
2021-04-27 00:56:04 GMT 35.279911 -80.940536 1,775 177 168 -160
2021-04-27 00:56:03 GMT 35.280609 -80.940628 1,775 179 174 -160
2021-04-27 00:56:02 GMT 35.282162 -80.940712 1,775 181 178 -160
2021-04-27 00:56:00 GMT 35.282970 -80.940697 1,825 181 179 -160
2021-04-27 00:55:59 GMT 35.283859 -80.940720 1,825 182 174 -160
2021-04-27 00:55:58 GMT 35.284672 -80.940666 1,825 182 173 -160
2021-04-27 00:55:57 GMT 35.286270 -80.940567 1,825 182 175 -160
2021-04-27 00:55:55 GMT 35.287041 -80.940514 1,900 182 179 -160
2021-04-27 00:55:54 GMT 35.287880 -80.940453 1,900 182 178 -160
2021-04-27 00:55:52 GMT 35.289570 -80.940353 1,900 183 173 -160
2021-04-27 00:55:51 GMT 35.290401 -80.940308 1,900 183 172 -160
2021-04-27 00:55:50 GMT 35.291191 -80.940231 2,100 184 174 -160
2021-04-27 00:55:48 GMT 35.292671 -80.940132 2,100 185 185 -160
2021-04-27 00:55:47 GMT 35.293541 -80.940041 2,100 186 183 -160
2021-04-27 00:55:46 GMT 35.294361 -80.939941 2,100 186 185 -160
2021-04-27 00:55:45 GMT 35.296021 -80.939743 2,100 188 186 -160
2021-04-27 00:55:43 GMT 35.296940 -80.939636 2,100 189 181 -160
2021-04-27 00:55:41 GMT 35.298618 -80.939346 2,100 189 177 -160
2021-04-27 00:55:40 GMT 35.299511 -80.939201 2,100 190 173 -160
2021-04-27 00:55:39 GMT 35.300301 -80.939018 2,100 190 173 -160
2021-04-27 00:55:38 GMT 35.301079 -80.938850 2,100 190 174 -160
2021-04-27 00:55:37 GMT 35.302681 -80.938507 2,100 191 172 -160
2021-04-27 00:55:35 GMT 35.303429 -80.938370 2,100 191 176 -160
2021-04-27 00:55:34 GMT 35.304230 -80.938133 2,100 191 175 -160
2021-04-27 00:55:32 GMT 35.305828 -80.937729 2,100 191 174 96
2021-04-27 00:55:31 GMT 35.306591 -80.937538 2,100 191 178 -320
2021-04-27 00:55:29 GMT 35.308270 -80.937141 2,100 191 173 -320
2021-04-27 00:55:27 GMT 35.309811 -80.936707 2,200 192 179 -320
2021-04-27 00:55:25 GMT 35.311409 -80.936279 2,200 193 181 64
2021-04-27 00:55:23 GMT 35.313091 -80.935829 2,200 195 181 -96
2021-04-27 00:55:22 GMT 35.313862 -80.935593 2,200 195 185 -96
2021-04-27 00:55:21 GMT 35.314709 -80.935310 2,200 196 185 -96
2021-04-27 00:55:19 GMT 35.316319 -80.934799 2,200 197 190 -96
2021-04-27 00:55:18 GMT 35.317188 -80.934448 2,200 197 188 -96
2021-04-27 00:55:17 GMT 35.318050 -80.934143 2,200 198 186 -96
2021-04-27 00:55:16 GMT 35.319752 -80.933456 2,200 198 184 -96
2021-04-27 00:55:14 GMT 35.320560 -80.933128 2,200 198 186 -96
2021-04-27 00:55:13 GMT 35.321350 -80.932808 2,200 199 190 -96
2021-04-27 00:55:12 GMT 35.322159 -80.932472 2,200 199 193 480
2021-04-27 00:55:10 GMT 35.323841 -80.931747 2,200 199 196 480
2021-04-27 00:55:09 GMT 35.324612 -80.931381 2,100 199 203 480
2021-04-27 00:55:08 GMT 35.325409 -80.931023 2,100 199 211 480
2021-04-27 00:55:07 GMT 35.326290 -80.930656 2,100 200 216 480
2021-04-27 00:55:04 GMT 35.329517 -80.929153 2,125 202 202 576
2021-04-27 00:54:53 GMT 35.338268 -80.924530 2,075 207 208 -192
2021-04-27 00:54:42 GMT 35.349243 -80.915909 2,100 219 211 64
2021-04-27 00:54:32 GMT 35.354424 -80.910332 2,075 227 216 192
2021-04-27 00:54:23 GMT 35.360195 -80.899521 2,100 249 222 -320
2021-04-27 00:54:11 GMT 35.363937 -80.886383 2,175 252 223 -448
2021-04-27 00:54:06 GMT 35.365829 -80.879013 2,200 271 235 -1344
2021-04-27 00:54:01 GMT 35.366665 -80.874451 2,250 260 222 -1024
2021-04-27 00:53:58 GMT 35.367130 -80.870476 2,325 264 221 -1216
2021-04-27 00:53:52 GMT 35.367325 -80.861778 2,450 272 218 -1088
2021-04-27 00:53:41 GMT 35.367180 -80.849380 2,650 271 217 -1280
2021-04-27 00:53:31 GMT 35.367039 -80.836060 2,850 271 232 -1280
2021-04-27 00:53:25 GMT 35.366959 -80.828423 2,975 271 233 -1280
2021-04-27 00:53:21 GMT 35.366898 -80.822792 3,075 271 236 -1472
2021-04-27 00:53:15 GMT 35.366867 -80.815598 3,200 271 236 -1472
2021-04-27 00:53:10 GMT 35.366806 -80.808945 3,325 271 234 -1536
2021-04-27 00:53:03 GMT 35.366684 -80.799637 3,500 271 234 -1472
2021-04-27 00:52:57 GMT 35.366501 -80.783958 3,750 272 223 64
2021-04-27 00:52:48 GMT 35.366432 -80.780075 3,800 272 227 -640
2021-04-27 00:52:39 GMT 35.366199 -80.767281 3,825 272 224 0
2021-04-27 00:52:33 GMT 35.366062 -80.760208 3,800 272 223 64
2021-04-27 00:52:29 GMT 35.365952 -80.755402 3,800 272 222 0
2021-04-27 00:52:23 GMT 35.365814 -80.747849 3,800 271 222 0
2021-04-27 00:52:18 GMT 35.365734 -80.742561 3,800 271 222 0
2021-04-27 00:52:12 GMT 35.365688 -80.734489 3,800 271 223 64
2021-04-27 00:52:08 GMT 35.365585 -80.728683 3,800 273 224 64
2021-04-27 00:52:02 GMT 35.365219 -80.722046 3,800 277 226 64
2021-04-27 00:51:57 GMT 35.364662 -80.715675 3,800 277 227 -64
2021-04-27 00:51:51 GMT 35.363827 -80.707497 3,800 278 228 64
2021-04-27 00:51:48 GMT 35.363407 -80.703346 3,800 278 229 -64
2021-04-27 00:51:40 GMT 35.362427 -80.693832 3,800 278 230 -64
2021-04-27 00:51:34 GMT 35.361374 -80.684448 3,800 278 230 -64
2021-04-27 00:51:30 GMT 35.360916 -80.680389 3,825 278 232 -256
2021-04-27 00:51:20 GMT 35.359451 -80.667747 3,875 278 233 -448
2021-04-27 00:51:13 GMT 35.358425 -80.658058 3,950 277 233 -1152
2021-04-27 00:51:10 GMT 35.357895 -80.652580 4,050 277 233 -1920
2021-04-27 00:51:00 GMT 35.356934 -80.641022 4,350 275 228 -1664
2021-04-27 00:50:51 GMT 35.356064 -80.629639 4,625 275 228 -1664
2021-04-27 00:50:48 GMT 35.355743 -80.624481 4,725 276 227 -1408
2021-04-27 00:50:39 GMT 35.354980 -80.613937 4,900 276 232 -1152
2021-04-27 00:50:31 GMT 35.354095 -80.601997 5,100 276 237 -2240
2021-04-27 00:50:27 GMT 35.353729 -80.597763 5,225 276 237 -2432
2021-04-27 00:50:19 GMT 35.352997 -80.586494 5,550 274 238 -1792
2021-04-27 00:50:07 GMT 35.352512 -80.570923 5,825 271 247 -1024
2021-04-27 00:49:58 GMT 35.352421 -80.556725 6,175 272 251 -3264
2021-04-27 00:49:47 GMT 35.351715 -80.542259 6,625 275 248 -2432
2021-04-27 00:49:36 GMT 35.350845 -80.528297 7,025 275 245 -2432
2021-04-27 00:49:33 GMT 35.350479 -80.522804 7,175 275 244 -2368
2021-04-27 00:49:25 GMT 35.349792 -80.511871 7,500 274 239 -2176
2021-04-27 00:49:22 GMT 35.349655 -80.508614 7,575 272 239 -2176
2021-04-27 00:49:15 GMT 35.349998 -80.498695 7,850 263 238 -2240
2021-04-27 00:49:12 GMT 35.350571 -80.494705 7,950 258 238 -2048
2021-04-27 00:49:06 GMT 35.352402 -80.485786 8,125 256 240 -512
2021-04-27 00:49:02 GMT 35.353260 -80.481812 8,125 256 245 192
2021-04-27 00:48:55 GMT 35.355423 -80.471703 8,125 257 254 -256
2021-04-27 00:48:52 GMT 35.356377 -80.466904 8,125 257 257 -384
2021-04-27 00:48:45 GMT 35.358215 -80.456825 8,200 258 264 -640
2021-04-27 00:48:41 GMT 35.359314 -80.450996 8,225 258 268 128
2021-04-27 00:48:34 GMT 35.362617 -80.434242 8,200 256 285 -1344
2021-04-27 00:48:25 GMT 35.364338 -80.426117 8,350 256 285 -1536
2021-04-27 00:48:19 GMT 35.366852 -80.414841 8,625 255 285 -2240
2021-04-27 00:48:05 GMT 35.371090 -80.396835 9,350 254 286 -2176
2021-04-27 00:48:02 GMT 35.372623 -80.390640 9,175 254 286 -2176
2021-04-27 00:47:57 GMT 35.374439 -80.383163 9,350 254 285 -2176
2021-04-27 00:47:44 GMT 35.379593 -80.362411 9,750 254 286 -256
2021-04-27 00:47:40 GMT 35.380913 -80.357162 9,800 254 286 -256
2021-04-27 00:47:36 GMT 35.382542 -80.350319 9,800 254 287 -64
2021-04-27 00:47:32 GMT 35.384029 -80.344009 9,800 254 288 -128
2021-04-27 00:47:24 GMT 35.386589 -80.333321 9,875 254 300 -768
2021-04-27 00:47:21 GMT 35.387753 -80.328232 9,850 254 292 -384
2021-04-27 00:47:15 GMT 35.390442 -80.317039 9,900 254 299 -704
2021-04-27 00:47:11 GMT 35.391861 -80.311150 9,950 254 303 -1408
2021-04-27 00:47:04 GMT 35.394409 -80.300240 10,150 255 307 -1536
2021-04-27 00:47:01 GMT 35.398361 -80.282364 11,400 255 348 -2880
2021-04-27 00:46:53 GMT 35.398361 -80.282364 10,425 256 311 -1536
2021-04-27 00:46:49 GMT 35.399857 -80.275230 10,475 256 312 -1536
2021-04-27 00:46:41 GMT 35.402885 -80.261383 10,675 255 318 -1536
2021-04-27 00:46:38 GMT 35.403954 -80.256531 10,975 255 328 -1536
2021-04-27 00:46:32 GMT 35.406235 -80.246368 10,975 255 325 -1536
2021-04-27 00:46:29 GMT 35.407700 -80.240021 10,975 255 328 -1536
2021-04-27 00:46:21 GMT 35.411125 -80.225327 11,200 255 331 -1536
2021-04-27 00:46:18 GMT 35.411961 -80.221756 11,250 255 333 -1536
2021-04-27 00:46:12 GMT 35.414803 -80.209312 11,475 255 339 -1664
2021-04-27 00:46:08 GMT 35.416245 -80.202652 11,750 256 340 -1792
2021-04-27 00:46:01 GMT 35.419739 -80.186523 11,800 256 345 -2112
2021-04-27 00:45:56 GMT 35.423355 -80.169807 12,050 255 348 -2880
2021-04-27 00:45:52 GMT 35.423355 -80.169807 12,300 255 348 -3008
2021-04-27 00:45:49 GMT 35.424625 -80.164139 12,300 255 348 -3072
2021-04-27 00:45:40 GMT 35.427933 -80.149269 12,675 255 349 -2880
2021-04-27 00:45:37 GMT 35.429260 -80.143204 12,825 255 349 -2880
2021-04-27 00:45:34 GMT 35.430534 -80.137436 12,925 255 349 -2944
2021-04-27 00:45:30 GMT 35.432632 -80.128258 13,225 255 350 -2944
2021-04-27 00:45:26 GMT 35.433746 -80.123291 13,725 255 351 -3008
2021-04-27 00:45:17 GMT 35.438171 -80.103775 13,875 255 351 -3008
2021-04-27 00:45:12 GMT 35.439926 -80.095657 14,075 256 351 -3008
2021-04-27 00:45:08 GMT 35.441662 -80.087585 14,275 256 351 -3008
2021-04-27 00:45:05 GMT 35.442825 -80.082207 14,425 256 353 -3008
2021-04-27 00:44:59 GMT 35.445831 -80.067902 14,775 256 353 -3008
2021-04-27 00:44:52 GMT 35.448364 -80.055855 15,100 256 354 -2880
2021-04-27 00:44:45 GMT 35.451279 -80.042267 15,950 255 354 -3008
2021-04-27 00:44:39 GMT 35.454025 -80.029846 15,900 255 355 -3072
2021-04-27 00:44:34 GMT 35.456268 -80.019722 17,050 255 354 -3008
2021-04-27 00:44:27 GMT 35.458923 -80.008102 16,300 255 355 -2944
2021-04-27 00:44:22 GMT 35.461166 -79.998405 17,050 255 355 -3072
2021-04-27 00:44:16 GMT 35.463730 -79.987167 16,850 255 355 -3008
2021-04-27 00:44:12 GMT 35.465591 -79.979012 17,250 254 356 -2944
2021-04-27 00:44:07 GMT 35.468197 -79.967377 17,350 255 356 -3008
2021-04-27 00:44:03 GMT 35.470013 -79.959602 17,550 255 355 -3008
2021-04-27 00:43:56 GMT 35.472656 -79.948364 17,825 254 356 -2944
2021-04-27 00:43:50 GMT 35.475540 -79.936752 18,125 253 357 -2944
2021-04-27 00:43:44 GMT 35.479092 -79.923256 18,450 253 358 -2944
2021-04-27 00:43:40 GMT 35.480438 -79.918266 18,650 253 358 -2880
2021-04-27 00:43:36 GMT 35.483276 -79.907455 18,850 253 358 -2944
2021-04-27 00:43:32 GMT 35.484768 -79.901634 19,000 253 358 -2944
2021-04-27 00:43:29 GMT 35.486664 -79.894241 19,175 253 358 -2944
2021-04-27 00:43:25 GMT 35.488266 -79.888062 19,325 253 358 -2944
2021-04-27 00:43:20 GMT 35.490646 -79.878731 19,575 253 359 -2944
2021-04-27 00:43:17 GMT 35.492592 -79.871368 19,750 253 359 -2944
2021-04-27 00:43:14 GMT 35.493614 -79.867508 19,850 252 360 -2944
2021-04-27 00:43:11 GMT 35.495819 -79.859329 20,050 252 360 -2880
2021-04-27 00:43:08 GMT 35.496967 -79.855064 20,150 252 362 -2496
2021-04-27 00:43:05 GMT 35.498978 -79.847717 20,325 252 361 -2560
2021-04-27 00:43:00 GMT 35.501202 -79.839516 20,500 252 363 -2304
2021-04-27 00:42:57 GMT 35.502693 -79.834084 20,600 253 363 -2176
2021-04-27 00:42:54 GMT 35.504322 -79.827766 20,725 253 363 -2112
2021-04-27 00:42:48 GMT 35.507393 -79.816025 20,925 253 363 -2112
2021-04-27 00:42:44 GMT 35.509506 -79.807777 21,100 253 363 -2240
2021-04-27 00:42:40 GMT 35.512024 -79.798393 21,250 253 362 -2176
2021-04-27 00:42:34 GMT 35.514954 -79.787460 21,450 252 363 -2112
2021-04-27 00:42:27 GMT 35.518295 -79.774933 21,675 252 361 -1984
2021-04-27 00:42:24 GMT 35.519917 -79.769157 21,775 252 360 -1920
2021-04-27 00:42:21 GMT 35.521404 -79.763725 21,875 252 359 -1920
2021-04-27 00:42:17 GMT 35.524151 -79.753670 22,025 252 358 -1920
2021-04-27 00:42:12 GMT 35.526062 -79.746773 22,150 252 357 -1792
2021-04-27 00:42:06 GMT 35.529877 -79.732590 22,350 252 354 -1728
2021-04-27 00:42:03 GMT 35.531296 -79.727264 22,450 253 353 -1792
2021-04-27 00:41:57 GMT 35.533676 -79.718117 22,575 253 350 -1792
2021-04-27 00:41:54 GMT 35.535137 -79.712471 22,675 253 349 -1792
2021-04-27 00:41:51 GMT 35.536674 -79.706451 22,775 253 348 -1856
2021-04-27 00:41:48 GMT 35.538666 -79.698662 22,900 253 349 -1152
2021-04-27 00:41:45 GMT 35.541515 -79.687515 22,975 253 351 -448
2021-04-27 00:41:42 GMT 35.541515 -79.687515 22,975 253 352 -192
2021-04-27 00:41:38 GMT 35.543381 -79.680290 23,000 253 354 -192
2021-04-27 00:41:34 GMT 35.545166 -79.673370 23,000 253 356 -192
2021-04-27 00:41:31 GMT 35.546684 -79.667595 23,000 257 353 64
2021-04-27 00:41:28 GMT 35.548546 -79.659882 23,000 257 353 64
2021-04-27 00:41:24 GMT 35.549973 -79.652428 23,000 260 352 64
2021-04-27 00:41:21 GMT 35.550594 -79.647316 23,000 264 349 0
2021-04-27 00:41:18 GMT 35.550980 -79.642181 23,000 272 346 0
2021-04-27 00:41:15 GMT 35.550964 -79.635513 23,000 274 345 64
2021-04-27 00:41:10 GMT 35.550201 -79.626617 23,000 280 342 0
2021-04-27 00:41:06 GMT 35.548462 -79.617577 23,000 288 339 64
2021-04-27 00:41:03 GMT 35.547382 -79.613541 23,000 9 335 0
2021-04-27 00:40:57 GMT 35.543564 -79.603668 23,000 300 335 -64
2021-04-27 00:40:52 GMT 35.539234 -79.595711 23,000 311 331 0
2021-04-27 00:40:47 GMT 35.533928 -79.588470 23,000 318 329 0
2021-04-27 00:40:42 GMT 35.527084 -79.581642 23,000 323 329 -64
2021-04-27 00:40:39 GMT 35.524521 -79.579582 23,000 331 328 -64
2021-04-27 00:40:32 GMT 35.515495 -79.574211 23,000 340 328 128
2021-04-27 00:40:27 GMT 35.506138 -79.570992 23,000 355 329 0
2021-04-27 00:40:22 GMT 35.495590 -79.569969 23,000 0 331 0
2021-04-27 00:40:16 GMT 35.490868 -79.570290 23,000 9 335 0
2021-04-27 00:40:13 GMT 35.484421 -79.571510 23,000 18 340 0
2021-04-27 00:40:08 GMT 35.476902 -79.574265 23,000 26 345 -128
2021-04-27 00:40:05 GMT 35.472473 -79.576492 23,000 26 345 -128
2021-04-27 00:40:01 GMT 35.466797 -79.580154 23,000 27 346 -64
2021-04-27 00:39:58 GMT 35.464600 -79.581871 23,025 39 353 0
2021-04-27 00:39:55 GMT 35.458832 -79.587074 23,025 42 355 64
2021-04-27 00:39:52 GMT 35.456406 -79.589767 23,025 44 357 64
2021-04-27 00:39:49 GMT 35.452415 -79.594666 23,000 51 362 192
2021-04-27 00:39:46 GMT 35.449631 -79.598747 23,000 54 364 192
2021-04-27 00:39:43 GMT 35.446594 -79.603722 22,975 58 368 128
2021-04-27 00:39:40 GMT 35.440292 -79.618034 23,000 64 372 -256
2021-04-27 00:39:36 GMT 35.440292 -79.618034 23,000 68 374 -192
2021-04-27 00:39:30 GMT 35.437241 -79.628029 23,025 71 375 -64
2021-04-27 00:39:27 GMT 35.434891 -79.636459 23,025 71 374 0
2021-04-27 00:39:24 GMT 35.433887 -79.640129 23,025 71 374 64
2021-04-27 00:39:20 GMT 35.431702 -79.648071 23,000 71 373 128
2021-04-27 00:39:15 GMT 35.428528 -79.659744 22,975 71 371 384
2021-04-27 00:39:10 GMT 35.425789 -79.669693 22,950 70 370 128
2021-04-27 00:39:07 GMT 35.424671 -79.673615 22,950 70 370 128
2021-04-27 00:39:02 GMT 35.421204 -79.685783 22,925 70 365 448
2021-04-27 00:38:58 GMT 35.419502 -79.691666 21,600 70 364 832
2021-04-27 00:38:54 GMT 35.417130 -79.699799 22,800 70 361 1664
2021-04-27 00:38:50 GMT 35.414841 -79.707474 22,700 70 361 1728
2021-04-27 00:38:45 GMT 35.411541 -79.718605 22,525 69 361 1792
2021-04-27 00:38:40 GMT 35.408516 -79.728600 22,350 69 361 1856
2021-04-27 00:38:32 GMT 35.404541 -79.742088 22,150 70 361 1856
2021-04-27 00:38:29 GMT 35.402836 -79.747887 22,050 70 362 1792
2021-04-27 00:38:23 GMT 35.399506 -79.759026 21,875 70 362 1856
2021-04-27 00:38:18 GMT 35.396805 -79.768295 21,725 70 362 1792
2021-04-27 00:38:15 GMT 35.394562 -79.776016 21,600 70 362 1856
2021-04-27 00:38:10 GMT 35.391758 -79.785698 21,450 70 363 1856
2021-04-27 00:38:07 GMT 35.387661 -79.799606 20,800 70 362 1792
2021-04-27 00:38:02 GMT 35.387661 -79.799606 21,250 70 361 1792
2021-04-27 00:37:58 GMT 35.384960 -79.808838 21,100 70 362 1856
2021-04-27 00:37:50 GMT 35.381012 -79.822372 20,875 70 362 1856
2021-04-27 00:37:46 GMT 35.378864 -79.829697 20,775 70 362 1856
2021-04-27 00:37:43 GMT 35.377167 -79.835472 20,575 70 362 1856
2021-04-27 00:37:39 GMT 35.374161 -79.845711 20,475 70 361 1792
2021-04-27 00:37:35 GMT 35.372452 -79.851547 20,475 70 361 1792
2021-04-27 00:37:32 GMT 35.370251 -79.858978 20,300 70 362 1856
2021-04-27 00:37:26 GMT 35.366806 -79.870544 20,125 70 362 1792
2021-04-27 00:37:21 GMT 35.363873 -79.880539 19,950 70 362 1792
2021-04-27 00:37:17 GMT 35.362152 -79.886337 19,875 70 362 1792
2021-04-27 00:37:14 GMT 35.360550 -79.891724 19,775 70 362 1792
2021-04-27 00:37:09 GMT 35.357727 -79.901405 19,625 70 362 1792
2021-04-27 00:37:03 GMT 35.354416 -79.912544 19,475 70 362 1728
2021-04-27 00:36:59 GMT 35.351440 -79.922562 19,300 69 363 1856
2021-04-27 00:36:56 GMT 35.350250 -79.926453 19,250 69 363 1856
2021-04-27 00:36:51 GMT 35.347580 -79.935295 19,100 69 362 1856
2021-04-27 00:36:47 GMT 35.345020 -79.943771 18,975 69 362 1856
2021-04-27 00:36:41 GMT 35.340782 -79.957558 18,750 69 362 1728
2021-04-27 00:36:30 GMT 35.335007 -79.976463 18,450 69 364 1792
2021-04-27 00:36:21 GMT 35.329517 -79.994614 18,050 69 364 1792
2021-04-27 00:36:15 GMT 35.325562 -80.007759 17,950 69 364 1728
2021-04-27 00:36:11 GMT 35.323059 -80.015884 17,850 69 364 1728
2021-04-27 00:36:08 GMT 35.321457 -80.021271 17,750 69 365 1728
2021-04-27 00:36:04 GMT 35.319649 -80.027100 17,675 69 365 1728
2021-04-27 00:36:00 GMT 35.316742 -80.036598 17,525 69 364 1792
2021-04-27 00:35:54 GMT 35.313858 -80.046043 17,375 69 366 1792
2021-04-27 00:35:49 GMT 35.311066 -80.055367 17,150 70 366 1792
2021-04-27 00:35:45 GMT 35.308594 -80.063843 17,150 70 366 1792
2021-04-27 00:35:40 GMT 35.305435 -80.074944 16,900 71 367 1664
2021-04-27 00:35:37 GMT 35.303635 -80.081566 16,850 71 367 1536
2021-04-27 00:35:29 GMT 35.295208 -80.115814 16,650 73 367 1536
2021-04-27 00:35:16 GMT 35.293991 -80.120949 16,350 73 366 1536
2021-04-27 00:35:06 GMT 35.289295 -80.141228 16,100 74 365 1472
2021-04-27 00:34:58 GMT 35.285797 -80.156769 15,900 74 364 1536
2021-04-27 00:34:55 GMT 35.284424 -80.162949 15,825 74 363 1472
2021-04-27 00:34:48 GMT 35.281338 -80.176994 15,650 74 362 1472
2021-04-27 00:34:41 GMT 35.277832 -80.192413 15,125 74 362 1600
2021-04-27 00:34:37 GMT 35.276634 -80.197563 15,375 74 361 1600
2021-04-27 00:34:33 GMT 35.274773 -80.205399 15,275 73 362 1536
2021-04-27 00:34:27 GMT 35.271881 -80.217590 15,100 73 361 1600
2021-04-27 00:34:17 GMT 35.266800 -80.238708 14,825 73 360 1728
2021-04-27 00:34:12 GMT 35.264374 -80.248894 14,650 74 360 1728
2021-04-27 00:34:03 GMT 35.260853 -80.264183 14,450 74 360 1600
2021-04-27 00:33:54 GMT 35.256088 -80.284943 14,150 74 360 1664
2021-04-27 00:33:42 GMT 35.251419 -80.305305 13,850 73 359 1664
2021-04-27 00:33:32 GMT 35.245834 -80.328651 13,525 73 359 1728
2021-04-27 00:33:22 GMT 35.241955 -80.345238 13,275 74 358 1728
2021-04-27 00:33:12 GMT 35.237064 -80.366508 12,950 74 357 1664
2021-04-27 00:33:09 GMT 35.235855 -80.371941 12,875 74 357 1728
2021-04-27 00:32:52 GMT 35.228638 -80.403847 12,450 74 355 1536
2021-04-27 00:32:48 GMT 35.226746 -80.411903 12,325 73 353 1536
2021-04-27 00:32:39 GMT 35.222900 -80.427994 12,125 73 351 1536
2021-04-27 00:32:30 GMT 35.218304 -80.447449 11,850 74 349 1536
2021-04-27 00:32:19 GMT 35.213928 -80.466782 11,600 74 346 1472
2021-04-27 00:32:15 GMT 35.212326 -80.474182 11,500 74 345 1472
2021-04-27 00:32:08 GMT 35.209366 -80.487328 11,350 74 341 1152
2021-04-27 00:32:03 GMT 35.207272 -80.496429 11,250 74 339 1024
2021-04-27 00:31:56 GMT 35.204201 -80.509705 11,125 73 336 1088
2021-04-27 00:31:48 GMT 35.200974 -80.523117 10,800 74 324 1088
2021-04-27 00:31:44 GMT 35.199234 -80.530289 10,925 73 330 1088
2021-04-27 00:31:41 GMT 35.197723 -80.536736 10,800 74 324 1088
2021-04-27 00:31:38 GMT 35.196579 -80.541725 10,800 74 324 1088
2021-04-27 00:31:33 GMT 35.194519 -80.550751 10,675 74 312 1280
2021-04-27 00:31:28 GMT 35.192596 -80.559326 10,675 74 312 1280
2021-04-27 00:31:23 GMT 35.190720 -80.567619 10,525 74 317 1216
2021-04-27 00:31:19 GMT 35.188789 -80.576248 10,425 74 312 1280
2021-04-27 00:31:12 GMT 35.186649 -80.585747 10,300 74 310 1408
2021-04-27 00:31:04 GMT 35.182938 -80.601418 9,950 73 306 2048
2021-04-27 00:31:01 GMT 35.182297 -80.604111 9,950 73 306 2048
2021-04-27 00:30:53 GMT 35.178921 -80.618362 9,475 73 303 2176
2021-04-27 00:30:50 GMT 35.177803 -80.622940 9,550 73 303 2048
2021-04-27 00:30:40 GMT 35.173416 -80.641052 9,175 73 301 1792
2021-04-27 00:30:30 GMT 35.169754 -80.656746 8,875 74 298 1920
2021-04-27 00:30:22 GMT 35.166641 -80.670311 8,625 74 295 1728
2021-04-27 00:30:19 GMT 35.165909 -80.673508 8,575 74 294 1664
2021-04-27 00:30:10 GMT 35.162201 -80.689308 8,275 73 288 1664
2021-04-27 00:29:59 GMT 35.158440 -80.705109 8,000 73 282 1792
2021-04-27 00:29:49 GMT 35.141541 -80.719276 6,200 92 271 2624
2021-04-27 00:29:48 GMT 35.141590 -80.720810 6,200 92 271 2624
2021-04-27 00:29:47 GMT 35.141689 -80.723869 6,200 92 271 2624
2021-04-27 00:29:45 GMT 35.141750 -80.725403 6,200 92 271 1632
2021-04-27 00:29:44 GMT 35.141800 -80.726929 6,200 92 271 1632
2021-04-27 00:29:43 GMT 35.141850 -80.728462 6,200 92 271 1632
2021-04-27 00:29:42 GMT 35.141949 -80.731522 6,200 92 271 1632
2021-04-27 00:29:40 GMT 35.141998 -80.733047 6,200 92 271 1632
2021-04-27 00:29:39 GMT 35.142109 -80.736107 6,200 92 271 1632
2021-04-27 00:29:37 GMT 35.142159 -80.737640 6,200 92 271 1632
2021-04-27 00:29:36 GMT 35.142208 -80.739159 6,200 92 271 1632
2021-04-27 00:29:35 GMT 35.142311 -80.742218 6,200 92 271 1632
2021-04-27 00:29:33 GMT 35.142368 -80.743752 6,200 92 271 1632
2021-04-27 00:29:32 GMT 35.142422 -80.745277 6,200 92 271 1632
2021-04-27 00:29:31 GMT 35.142471 -80.746811 6,200 92 271 1632
2021-04-27 00:29:30 GMT 35.142521 -80.748337 6,200 92 271 1632
2021-04-27 00:29:28 GMT 35.142620 -80.751404 6,200 92 271 1632
2021-04-27 00:29:27 GMT 35.142670 -80.752930 6,200 92 271 1632
2021-04-27 00:29:26 GMT 35.142731 -80.754463 6,200 92 271 1632
2021-04-27 00:29:24 GMT 35.142830 -80.757523 6,200 92 271 1632
2021-04-27 00:29:23 GMT 35.142879 -80.759048 6,200 92 271 1632
2021-04-27 00:29:22 GMT 35.142929 -80.760582 6,200 92 271 1632
2021-04-27 00:29:21 GMT 35.142979 -80.762100 6,200 92 271 1632
2021-04-27 00:29:19 GMT 35.143089 -80.765160 6,200 92 271 1632
2021-04-27 00:29:18 GMT 35.142960 -80.766609 6,200 92 273 1632
2021-04-27 00:29:17 GMT 35.143021 -80.768150 6,200 92 273 1632
2021-04-27 00:29:15 GMT 35.143150 -80.771233 6,200 92 273 1632
2021-04-27 00:29:14 GMT 35.143211 -80.772774 6,200 92 273 1632
2021-04-27 00:29:13 GMT 35.143150 -80.774277 6,000 92 274 1632
2021-04-27 00:29:12 GMT 35.143219 -80.775818 6,000 92 274 1632
2021-04-27 00:29:10 GMT 35.143360 -80.778908 6,000 92 274 1632
2021-04-27 00:29:09 GMT 35.143429 -80.780449 6,000 92 274 1632
2021-04-27 00:29:08 GMT 35.143719 -80.783508 5,800 92 274 1632
2021-04-27 00:29:06 GMT 35.143780 -80.785049 5,800 92 274 1632
2021-04-27 00:29:05 GMT 35.143841 -80.786598 5,800 92 274 1632
2021-04-27 00:29:04 GMT 35.144119 -80.788231 5,600 91 272 1632
2021-04-27 00:29:02 GMT 35.144211 -80.791290 5,600 91 272 1632
2021-04-27 00:29:01 GMT 35.144260 -80.792824 5,600 91 272 1632
2021-04-27 00:29:00 GMT 35.144299 -80.794350 5,600 91 272 1632
2021-04-27 00:28:58 GMT 35.144428 -80.797562 5,200 91 269 1632
2021-04-27 00:28:57 GMT 35.144482 -80.799080 5,200 91 269 1632
2021-04-27 00:28:56 GMT 35.144520 -80.800598 5,200 91 269 1632
2021-04-27 00:28:54 GMT 35.144581 -80.803886 5,200 91 265 1632
2021-04-27 00:28:53 GMT 35.144619 -80.805382 5,200 91 265 1632
2021-04-27 00:28:52 GMT 35.144661 -80.806877 5,200 91 265 1632
2021-04-27 00:28:51 GMT 35.144699 -80.808380 5,200 91 265 1632
2021-04-27 00:28:49 GMT 35.144901 -80.811256 5,000 91 267 1632
2021-04-27 00:28:48 GMT 35.144920 -80.812767 5,000 91 267 1632
2021-04-27 00:28:47 GMT 35.144939 -80.814270 5,000 91 267 1632
2021-04-27 00:28:46 GMT 35.144970 -80.815781 5,000 91 267 1632
2021-04-27 00:28:44 GMT 35.144901 -80.818970 4,700 91 263 1824
2021-04-27 00:28:43 GMT 35.144951 -80.820457 4,700 91 263 1824
2021-04-27 00:28:42 GMT 35.144939 -80.823929 4,700 92 256 1824
2021-04-27 00:28:40 GMT 35.144989 -80.825371 4,700 92 256 1824
2021-04-27 00:28:39 GMT 35.145031 -80.826813 4,700 92 256 1824
2021-04-27 00:28:37 GMT 35.145119 -80.829697 4,700 92 256 1824
2021-04-27 00:28:35 GMT 35.145210 -80.834137 4,400 92 254 1824
2021-04-27 00:28:33 GMT 35.145260 -80.835579 4,400 92 254 1824
2021-04-27 00:28:32 GMT 35.145378 -80.836937 4,400 92 256 1824
2021-04-27 00:28:30 GMT 35.145481 -80.839844 4,400 92 256 1824
2021-04-27 00:28:29 GMT 35.145531 -80.841278 4,400 92 256 1824
2021-04-27 00:28:28 GMT 35.145569 -80.842728 4,400 92 256 1824
2021-04-27 00:28:27 GMT 35.145500 -80.846008 4,200 91 247 1824
2021-04-27 00:28:26 GMT 35.145538 -80.847412 4,200 91 247 1824
2021-04-27 00:28:24 GMT 35.145580 -80.848801 4,200 91 247 1824
2021-04-27 00:28:23 GMT 35.145618 -80.850189 4,200 91 247 1824
2021-04-27 00:28:22 GMT 35.145931 -80.852943 3,900 90 248 1824
2021-04-27 00:28:20 GMT 35.145962 -80.854340 3,900 90 248 1824
2021-04-27 00:28:19 GMT 35.146000 -80.855728 3,900 90 248 1824
2021-04-27 00:28:18 GMT 35.146530 -80.858833 3,900 88 239 1824
2021-04-27 00:28:16 GMT 35.146488 -80.860184 3,900 88 239 1824
2021-04-27 00:28:15 GMT 35.146461 -80.861519 3,900 88 239 1824
2021-04-27 00:28:14 GMT 35.146420 -80.862869 3,900 88 239 1824
2021-04-27 00:28:13 GMT 35.146469 -80.864159 3,600 88 242 1824
2021-04-27 00:28:11 GMT 35.146412 -80.866882 3,600 88 242 1824
2021-04-27 00:28:10 GMT 35.146381 -80.868240 3,600 88 242 1824
2021-04-27 00:28:09 GMT 35.146332 -80.869583 3,600 89 243 1824
2021-04-27 00:28:08 GMT 35.146332 -80.872292 3,600 89 244 1824
2021-04-27 00:28:06 GMT 35.146358 -80.873619 3,600 89 246 1824
2021-04-27 00:28:05 GMT 35.146381 -80.875000 3,600 89 247 1824
2021-04-27 00:28:04 GMT 35.146420 -80.876358 3,300 89 247 1824
2021-04-27 00:28:02 GMT 35.146481 -80.879158 3,300 91 244 1824
2021-04-27 00:28:01 GMT 35.146469 -80.880447 3,300 93 247 1824
2021-04-27 00:27:59 GMT 35.146511 -80.883087 3,300 98 250 1824
2021-04-27 00:27:58 GMT 35.146610 -80.884499 3,300 100 247 1824
2021-04-27 00:27:57 GMT 35.146740 -80.885933 3,300 103 243 1824
2021-04-27 00:27:56 GMT 35.146938 -80.887329 3,300 105 238 1824
2021-04-27 00:27:54 GMT 35.147362 -80.889977 3,200 111 235 1824
2021-04-27 00:27:53 GMT 35.147629 -80.891212 3,200 114 237 1824
2021-04-27 00:27:52 GMT 35.147968 -80.892502 3,200 116 235 1824
2021-04-27 00:27:50 GMT 35.148819 -80.895042 3,000 122 228 1824
2021-04-27 00:27:49 GMT 35.149288 -80.896240 3,000 124 225 1824
2021-04-27 00:27:48 GMT 35.149769 -80.897324 3,000 126 228 1824
2021-04-27 00:27:47 GMT 35.150299 -80.898338 3,000 127 231 1824
2021-04-27 00:27:45 GMT 35.151550 -80.900520 2,900 129 224 1824
2021-04-27 00:27:44 GMT 35.152210 -80.901619 2,900 130 220 1696
2021-04-27 00:27:43 GMT 35.152790 -80.902481 2,900 131 226 1696
2021-04-27 00:27:41 GMT 35.154221 -80.904518 2,750 131 216 1696
2021-04-27 00:27:40 GMT 35.154919 -80.905457 2,750 131 213 1696
2021-04-27 00:27:39 GMT 35.155510 -80.906319 2,750 131 217 1696
2021-04-27 00:27:38 GMT 35.156860 -80.908150 2,750 131 215 1696
2021-04-27 00:27:36 GMT 35.157490 -80.908997 2,600 131 218 1696
2021-04-27 00:27:35 GMT 35.158180 -80.909950 2,600 130 216 1696
2021-04-27 00:27:34 GMT 35.159481 -80.911720 2,600 129 217 1696
2021-04-27 00:27:32 GMT 35.160179 -80.912659 2,500 129 214 1696
2021-04-27 00:27:31 GMT 35.160881 -80.913612 2,500 128 209 1696
2021-04-27 00:27:30 GMT 35.161541 -80.914543 2,500 127 206 1696
2021-04-27 00:27:29 GMT 35.162720 -80.916267 2,500 127 210 1696
2021-04-27 00:27:27 GMT 35.163319 -80.917130 2,400 127 212 1696
2021-04-27 00:27:26 GMT 35.163971 -80.918030 2,400 127 211 1696
2021-04-27 00:27:25 GMT 35.164570 -80.918938 2,200 128 210 1696
2021-04-27 00:27:23 GMT 35.165749 -80.920647 2,200 130 214 1696
2021-04-27 00:27:22 GMT 35.166382 -80.921547 2,200 131 212 1696
2021-04-27 00:27:21 GMT 35.167011 -80.922478 2,200 134 207 1696
2021-04-27 00:27:19 GMT 35.168320 -80.924141 2,200 139 204 1696
2021-04-27 00:27:18 GMT 35.168968 -80.924942 2,125 143 201 -960
2021-04-27 00:27:17 GMT 35.169682 -80.925682 2,125 146 199 -960
2021-04-27 00:27:15 GMT 35.171108 -80.927010 2,125 154 197 -960
2021-04-27 00:27:14 GMT 35.171909 -80.927620 2,125 158 193 2144
2021-04-27 00:27:13 GMT 35.173550 -80.928581 2,100 164 186 2144
2021-04-27 00:27:11 GMT 35.174431 -80.928970 2,100 166 179 2144
2021-04-27 00:27:10 GMT 35.175251 -80.929260 2,100 168 176 2144
2021-04-27 00:27:09 GMT 35.176842 -80.929718 2,075 170 175 2144
2021-04-27 00:27:07 GMT 35.177670 -80.929962 2,000 172 171 2144
2021-04-27 00:27:06 GMT 35.178452 -80.930130 2,000 173 170 2144
2021-04-27 00:27:04 GMT 35.180061 -80.930389 1,900 174 164 2144
2021-04-27 00:27:03 GMT 35.180771 -80.930450 1,900 174 168 2144
2021-04-27 00:27:02 GMT 35.181568 -80.930588 1,900 175 166 2144
2021-04-27 00:27:01 GMT 35.183109 -80.930779 1,775 175 163 2144
2021-04-27 00:26:59 GMT 35.183891 -80.930878 1,775 175 161 2144
2021-04-27 00:26:58 GMT 35.184601 -80.930923 1,775 174 162 2144
2021-04-27 00:26:57 GMT 35.185371 -80.931030 1,775 174 160 2144
2021-04-27 00:26:55 GMT 35.186810 -80.931152 1,500 173 164 2144
2021-04-27 00:26:54 GMT 35.187641 -80.931252 1,500 172 156 2144
2021-04-27 00:26:53 GMT 35.188389 -80.931389 1,500 172 152 2144
2021-04-27 00:26:52 GMT 35.189049 -80.931488 1,500 171 157 2144
2021-04-27 00:26:50 GMT 35.190449 -80.931702 1,475 171 165 2144
2021-04-27 00:26:49 GMT 35.191219 -80.931831 1,325 170 161 2144
2021-04-27 00:26:48 GMT 35.191990 -80.931999 1,325 170 157 2144
2021-04-27 00:26:46 GMT 35.193459 -80.932312 1,325 171 152 2144
2021-04-27 00:26:45 GMT 35.194149 -80.932457 550 172 153 2144
2021-04-27 00:26:44 GMT 35.195541 -80.932716 550 172 156 -288
2021-04-27 00:26:42 GMT 35.196239 -80.932808 550 172 162 -288
2021-04-27 00:26:41 GMT 35.196980 -80.932953 550 172 158 -288
2021-04-27 00:26:40 GMT 35.197689 -80.933029 550 172 160 -288
2021-04-27 00:26:39 GMT 35.199139 -80.933319 550 174 158 -288
2021-04-27 00:26:37 GMT 35.199860 -80.933411 550 173 158 -288
2021-04-27 00:26:36 GMT 35.200562 -80.933487 550 171 164 -288
2021-04-27 00:26:35 GMT 35.202122 -80.933777 550 173 154 -288
2021-04-27 00:26:33 GMT 35.202789 -80.933922 550 173 156 -288
2021-04-27 00:26:31 GMT 35.204300 -80.934090 550 173 148 -288
2021-04-27 00:26:30 GMT 35.204971 -80.934196 550 173 149 -288
2021-04-27 00:26:29 GMT 35.205650 -80.934303 550 173 151 -288
2021-04-27 00:26:28 GMT 35.206329 -80.934402 550 174 151 -288
2021-04-27 00:26:26 GMT 35.207699 -80.934578 550 174 153 -288
2021-04-27 00:26:25 GMT 35.208420 -80.934669 550 174 150 -288
2021-04-27 00:26:24 GMT 35.209091 -80.934738 550 174 151 -288
2021-04-27 00:26:23 GMT 35.209789 -80.934830 550 175 148 -288
2021-04-27 00:26:21 GMT 35.211170 -80.934952 550 175 144 -288
2021-04-27 00:26:20 GMT 35.211830 -80.935028 600 175 142 -288
2021-04-27 00:26:19 GMT 35.212490 -80.935143 600 176 137 -288
2021-04-27 00:26:17 GMT 35.213760 -80.935242 600 176 131
2021-04-27 00:26:16 GMT 35.214371 -80.935280 600 176 129
2021-04-27 00:26:15 GMT 35.214970 -80.935333 600 176 125
2021-04-27 00:26:14 GMT 35.216122 -80.935402 575 176 118
2021-04-27 00:26:12 GMT 35.216671 -80.935463 575 176 115
2021-04-27 00:26:11 GMT 35.217201 -80.935501 575 176 112
2021-04-27 00:26:10 GMT 35.217709 -80.935532 0 176 109
2021-04-27 00:26:08 GMT 35.218731 -80.935608 0 175 97
2021-04-27 00:26:07 GMT 35.219181 -80.935638 0 175 96
2021-04-27 00:26:06 GMT 35.220051 -80.935730 0 175 88
2021-04-27 00:26:04 GMT 35.220440 -80.935768 0 176 86
2021-04-27 00:26:03 GMT 35.220860 -80.935806 0 176 80
2021-04-27 00:26:01 GMT 35.221600 -80.935860 0 175 70
2021-04-27 00:26:00 GMT 35.221939 -80.935890 0 175 64
2021-04-27 00:25:59 GMT 35.222260 -80.935890 0 173 58
2021-04-27 00:25:58 GMT 35.222542 -80.935944 0 174 54
2021-04-27 00:25:56 GMT 35.223061 -80.935959 0 171 43
2021-04-27 00:25:55 GMT 35.223282 -80.936028 0 173 37
2021-04-27 00:25:54 GMT 35.223480 -80.936028 0 171 33
2021-04-27 00:25:53 GMT 35.223808 -80.936111 0 175 24
2021-04-27 00:25:51 GMT 35.223991 -80.936111 0 175 17
2021-04-27 00:25:50 GMT 35.224110 -80.936096 0 173 12
2021-04-27 00:25:49 GMT 35.224178 -80.936119 0 177 10
2021-04-27 00:25:48 GMT 35.224239 -80.936119 0 176 10
2021-04-27 00:25:46 GMT 35.224350 -80.936111 0 169 7
2021-04-27 00:25:45 GMT 35.224369 -80.936119 0 172 9
2021-04-27 00:25:44 GMT 35.224400 -80.936142 0 180 10
2021-04-27 00:25:43 GMT 35.224449 -80.936188 0 194 10
2021-04-27 00:25:41 GMT 35.224571 -80.936150 0 185 7
2021-04-27 00:25:40 GMT 35.224602 -80.936096 0 169 6
2021-04-27 00:25:39 GMT 35.224628 -80.936089 0 171 8
2021-04-27 00:25:37 GMT 35.224689 -80.936119 0 169 8
2021-04-27 00:25:36 GMT 35.224701 -80.936119 0 176 12
2021-04-27 00:25:35 GMT 35.224751 -80.936150 0 173 10
2021-04-27 00:25:34 GMT 35.224838 -80.936157 0 149 10
2021-04-27 00:25:32 GMT 35.224892 -80.936172 0 131 9
2021-04-27 00:25:31 GMT 35.224960 -80.936157 0 111 8
2021-04-27 00:25:29 GMT 35.224991 -80.936241 0 113 10
2021-04-27 00:25:28 GMT 35.225021 -80.936256 0 106 11
2021-04-27 00:25:27 GMT 35.225040 -80.936279 0 102 13
2021-04-27 00:25:25 GMT 35.225121 -80.936417 0 72 13
2021-04-27 00:25:24 GMT 35.225109 -80.936493 0 76 13
2021-04-27 00:25:22 GMT 35.225071 -80.936653 0 81 11
2021-04-27 00:25:21 GMT 35.225040 -80.936737 0 85 8
2021-04-27 00:25:20 GMT 35.225029 -80.936752 0 86 10
2021-04-27 00:25:19 GMT 35.225060 -80.936821 0 78 13
2021-04-27 00:25:17 GMT 35.225040 -80.937027 0 77 6
2021-04-27 00:25:16 GMT 35.225040 -80.937103 0 74 6
2021-04-27 00:25:15 GMT 35.225010 -80.937187 0 70 5
2021-04-27 00:25:14 GMT 35.225010 -80.937248 0 68 4
2021-04-27 00:25:12 GMT 35.224991 -80.937347 0 65 3
2021-04-27 00:25:11 GMT 35.224979 -80.937317 0 65 3
2021-04-27 00:25:10 GMT 35.224930 -80.937408 0 65 1
2021-04-27 00:25:08 GMT 35.224941 -80.937408 0 65 0
2021-04-27 00:25:06 GMT 35.224949 -80.937401 0 64 0
2021-04-27 00:25:05 GMT 35.224941 -80.937408 0 64 0
2021-04-27 00:25:03 GMT 35.224899 -80.937469 0 63 1
2021-04-27 00:25:02 GMT 35.224899 -80.937462 0 62 2
2021-04-27 00:25:01 GMT 35.224911 -80.937462 0 60 1
2021-04-27 00:24:59 GMT 35.224892 -80.937469 0 55 2
2021-04-27 00:24:58 GMT 35.224899 -80.937462 0 53 2
2021-04-27 00:24:57 GMT 35.224911 -80.937447 0 51 2
2021-04-27 00:24:56 GMT 35.224892 -80.937492 0 46 2
2021-04-27 00:24:54 GMT 35.224949 -80.937424 0 46 0
2021-04-27 00:24:53 GMT 35.225010 -80.937363 0 45 0
2021-04-27 00:24:50 GMT 35.225010 -80.937363 0 45 0
2021-04-27 00:24:49 GMT 35.224998 -80.937370 0 46 0
2021-04-27 00:24:45 GMT 35.224998 -80.937378 0 46 0
2021-04-27 00:24:41 GMT 35.224998 -80.937378 0 46 0
2021-04-27 00:24:39 GMT 35.224998 -80.937378 0 46 0
2021-04-27 00:24:34 GMT 35.225010 -80.937370 0 46 0
2021-04-27 00:24:32 GMT 35.224998 -80.937378 0 46 1
2021-04-27 00:24:31 GMT 35.224972 -80.937408 0 46 1
2021-04-27 00:24:30 GMT 35.224960 -80.937431 0 46 2
2021-04-27 00:24:25 GMT 35.224979 -80.937393 0 46 0
2021-04-27 00:24:22 GMT 35.224991 -80.937378 0 46 0
2021-04-27 00:24:20 GMT 35.224998 -80.937393 0 46 0
2021-04-27 00:24:15 GMT 35.225010 -80.937363 0 47 0
2021-04-27 00:24:10 GMT 35.224991 -80.937378 0 47 0
2021-04-27 00:24:08 GMT 35.224979 -80.937393 0 47 0
2021-04-27 00:24:06 GMT 35.224972 -80.937401 0 47 0
2021-04-27 00:24:04 GMT 35.224979 -80.937393 0 46 0
2021-04-27 00:24:01 GMT 35.224991 -80.937393 0 46 0
2021-04-27 00:24:00 GMT 35.224979 -80.937393 0 46 0
2021-04-27 00:23:57 GMT 35.224991 -80.937393 0 46 0
2021-04-27 00:23:55 GMT 35.224991 -80.937401 0 46 0
2021-04-27 00:23:54 GMT 35.224991 -80.937393 0 46 0
2021-04-27 00:23:52 GMT 35.224991 -80.937408 0 46 1
2021-04-27 00:23:51 GMT 35.224972 -80.937393 0 46 1
2021-04-27 00:23:50 GMT 35.224991 -80.937408 0 48 1
2021-04-27 00:23:48 GMT 35.224979 -80.937401 0 50 1
2021-04-27 00:23:47 GMT 35.224979 -80.937393 0 49 0
2021-04-27 00:23:45 GMT 35.224991 -80.937393 0 49 1
2021-04-27 00:23:44 GMT 35.224979 -80.937393 0 48 1
2021-04-27 00:23:43 GMT 35.224991 -80.937370 0 48 1
2021-04-27 00:23:42 GMT 35.225021 -80.937363 0 47 3
2021-04-27 00:23:41 GMT 35.225021 -80.937370 0 50 3
2021-04-27 00:23:39 GMT 35.224991 -80.937393 0 48 4
2021-04-27 00:23:38 GMT 35.224991 -80.937401 0 35 5
2021-04-27 00:23:37 GMT 35.224960 -80.937462 0 26 2
2021-04-27 00:23:36 GMT 35.224972 -80.937447 0 19 4
2021-04-27 00:23:34 GMT 35.224949 -80.937531 0 350 6
2021-04-27 00:23:32 GMT 35.224918 -80.937477 0 345 6
2021-04-27 00:23:31 GMT 35.224880 -80.937492 0 324 5
2021-04-27 00:23:30 GMT 35.224861 -80.937492 0 316 5
2021-04-27 00:23:28 GMT 35.224781 -80.937492 0 318 1
2021-04-27 00:23:27 GMT 35.224781 -80.937523 0 318 1
2021-04-27 00:23:26 GMT 35.224789 -80.937508 0 326 2
2021-04-27 00:23:25 GMT 35.224850 -80.937492 0 348 10
2021-04-27 00:23:23 GMT 35.224770 -80.937462 0 2 6
2021-04-27 00:23:22 GMT 35.224739 -80.937424 0 9 4
2021-04-27 00:23:21 GMT 35.224720 -80.937408 0 19 7
2021-04-27 00:23:19 GMT 35.224659 -80.937424 0 25 4
2021-04-27 00:23:18 GMT 35.224651 -80.937439 0 15 5
2021-04-27 00:23:17 GMT 35.224640 -80.937447 0 15 8
2021-04-27 00:23:16 GMT 35.224590 -80.937439 0 20 6
2021-04-27 00:23:15 GMT 35.224541 -80.937492 0 350 6
2021-04-27 00:23:13 GMT 35.224510 -80.937523 0 339 6
2021-04-27 00:23:12 GMT 35.224468 -80.937523 0 334 5
2021-04-27 00:23:11 GMT 35.224411 -80.937538 0 346 5
2021-04-27 00:23:09 GMT 35.224411 -80.937431 0 19 3
2021-04-27 00:23:08 GMT 35.224449 -80.937393 0 12 9
2021-04-27 00:23:07 GMT 35.224388 -80.937431 0 7 7
2021-04-27 00:23:05 GMT 35.224312 -80.937469 0 355 6
2021-04-27 00:23:04 GMT 35.224281 -80.937462 0 353 5
2021-04-27 00:23:03 GMT 35.224270 -80.937469 0 353 7
2021-04-27 00:23:02 GMT 35.224209 -80.937431 0 4 8
2021-04-27 00:23:00 GMT 35.224171 -80.937439 0 351 6
2021-04-27 00:22:59 GMT 35.224129 -80.937469 0 343 5
2021-04-27 00:22:57 GMT 35.224079 -80.937462 0 350 5
2021-04-27 00:22:56 GMT 35.224060 -80.937424 0 351 5
2021-04-27 00:22:55 GMT 35.224041 -80.937431 0 337 5
2021-04-27 00:22:54 GMT 35.223999 -80.937447 0 345 4
2021-04-27 00:22:53 GMT 35.223991 -80.937447 0 350 5
2021-04-27 00:22:51 GMT 35.223942 -80.937378 0 10 5
2021-04-27 00:22:50 GMT 35.223919 -80.937401 0 7 5
2021-04-27 00:22:49 GMT 35.223919 -80.937378 0 11 8
2021-04-27 00:22:47 GMT 35.223839 -80.937431 0 353 6
2021-04-27 00:22:46 GMT 35.223839 -80.937408 0 359 8
2021-04-27 00:22:45 GMT 35.223789 -80.937401 0 357 8
2021-04-27 00:22:43 GMT 35.223721 -80.937401 0 356 7
2021-04-27 00:22:42 GMT 35.223660 -80.937393 0 342 5
2021-04-27 00:22:41 GMT 35.223621 -80.937431 0 339 3
2021-04-27 00:22:40 GMT 35.223660 -80.937447 0 339 8
2021-04-27 00:22:38 GMT 35.223572 -80.937424 0 343 5
2021-04-27 00:22:37 GMT 35.223549 -80.937393 0 350 5
2021-04-27 00:22:36 GMT 35.223549 -80.937401 0 357 8
2021-04-27 00:22:34 GMT 35.223469 -80.937347 0 3 7
2021-04-27 00:22:33 GMT 35.223450 -80.937370 0 1 9
2021-04-27 00:22:32 GMT 35.223400 -80.937363 0 2 7
2021-04-27 00:22:31 GMT 35.223331 -80.937363 0 1 7
2021-04-27 00:22:29 GMT 35.223320 -80.937370 0 0 8
2021-04-27 00:22:27 GMT 35.223259 -80.937363 0 3 6
2021-04-27 00:22:26 GMT 35.223221 -80.937363 0 356 11
2021-04-27 00:22:25 GMT 35.223179 -80.937378 0 354 12
2021-04-27 00:22:24 GMT 35.223110 -80.937378 0 353 11
2021-04-27 00:22:23 GMT 35.223042 -80.937347 0 354 7
2021-04-27 00:22:21 GMT 35.222980 -80.937370 0 346 10
2021-04-27 00:22:20 GMT 35.222919 -80.937340 0 354 9
2021-04-27 00:22:19 GMT 35.222881 -80.937317 0 2 8
2021-04-27 00:22:17 GMT 35.222820 -80.937317 0 357 13
2021-04-27 00:22:16 GMT 35.222752 -80.937309 0 359 13
2021-04-27 00:22:15 GMT 35.222679 -80.937302 0 0 10
2021-04-27 00:22:14 GMT 35.222641 -80.937309 0 353 11
2021-04-27 00:22:13 GMT 35.222569 -80.937332 0 350 9
2021-04-27 00:22:11 GMT 35.222488 -80.937286 0 2 10
2021-04-27 00:22:09 GMT 35.222408 -80.937263 0 12 12
2021-04-27 00:22:08 GMT 35.222359 -80.937263 0 16 11
2021-04-27 00:22:07 GMT 35.222309 -80.937279 0 20 11
2021-04-27 00:22:05 GMT 35.222191 -80.937317 0 31 7
2021-04-27 00:22:04 GMT 35.222149 -80.937332 0 31 7
2021-04-27 00:22:03 GMT 35.222141 -80.937363 0 33 9
2021-04-27 00:22:02 GMT 35.222050 -80.937378 0 54 7
2021-04-27 00:22:00 GMT 35.222038 -80.937401 0 58 8
2021-04-27 00:21:59 GMT 35.221989 -80.937439 0 69 7
2021-04-27 00:21:58 GMT 35.221951 -80.937462 0 77 8
2021-04-27 00:21:56 GMT 35.221920 -80.937561 0 91 6
2021-04-27 00:21:55 GMT 35.221931 -80.937592 0 89 7
2021-04-27 00:21:54 GMT 35.221920 -80.937630 0 92 7
2021-04-27 00:21:53 GMT 35.221909 -80.937653 0 92 7
2021-04-27 00:21:51 GMT 35.221920 -80.937737 0 98 6
2021-04-27 00:21:50 GMT 35.221909 -80.937782 0 99 5
2021-04-27 00:21:49 GMT 35.221909 -80.937798 0 96 5
2021-04-27 00:21:48 GMT 35.221981 -80.937897 0 95 3
2021-04-27 00:21:46 GMT 35.221981 -80.937943 0 97 3
2021-04-27 00:21:45 GMT 35.221970 -80.937950 0 97 3
2021-04-27 00:21:44 GMT 35.221951 -80.937958 0 99 4
2021-04-27 00:21:42 GMT 35.221951 -80.937981 0 101 4
2021-04-27 00:21:41 GMT 35.221970 -80.938087 0 106 2
2021-04-27 00:21:40 GMT 35.221970 -80.938110 0 106 2
2021-04-27 00:21:38 GMT 35.221970 -80.938141 0 107 1
2021-04-27 00:21:37 GMT 35.221958 -80.938148 0 107 0
2021-04-27 00:21:35 GMT 35.221951 -80.938164 0 107 1
2021-04-27 00:21:34 GMT 35.221958 -80.938171 0 105 1
2021-04-27 00:21:33 GMT 35.221989 -80.938187 0 105 2
2021-04-27 00:21:32 GMT 35.221939 -80.938148 0 105 3
2021-04-27 00:21:30 GMT 35.221939 -80.938179 0 105 2
2021-04-27 00:21:29 GMT 35.221958 -80.938187 0 105 0
2021-04-27 00:21:27 GMT 35.221970 -80.938187 0 105 0
2021-04-27 00:21:26 GMT 35.221958 -80.938179 0 105 0
2021-04-27 00:21:25 GMT 35.221958 -80.938202 0 105 1
2021-04-27 00:21:24 GMT 35.221970 -80.938210 0 105 1
2021-04-27 00:21:22 GMT 35.221958 -80.938202 0 105 1
2021-04-27 00:21:21 GMT 35.221951 -80.938187 0 105 0
2021-04-27 00:21:20 GMT 35.221970 -80.938202 0 105 2
2021-04-27 00:21:19 GMT 35.221958 -80.938210 0 104 2
2021-04-27 00:21:17 GMT 35.221958 -80.938179 0 98 1
2021-04-27 00:21:16 GMT 35.221970 -80.938164 0 98 0
2021-04-27 00:21:15 GMT 35.221958 -80.938133 0 98 3
2021-04-27 00:21:13 GMT 35.222000 -80.938179 0 100 4
2021-04-27 00:21:11 GMT 35.221939 -80.938171 0 102 2
2021-04-27 00:21:10 GMT 35.221951 -80.938171 0 98 4
2021-04-27 00:21:09 GMT 35.221951 -80.938187 0 86 4
2021-04-27 00:21:08 GMT 35.221970 -80.938202 0 84 4
2021-04-27 00:21:07 GMT 35.221951 -80.938232 0 84 4
2021-04-27 00:21:05 GMT 35.221989 -80.938240 0 88 5

Making use of Plane Finder data

You are free to use the raw flight data, aircraft information and images provided in this report for your own purposes provided the data is correctly attributed to Plane Finder. We ask that you please credit Plane Finder and link to planefinder.net in close proximity to the content.

Optionally one of the following logos (no smaller then 150x24px) can be used and must link to planefinder.net

Embedding the Plane Finder map

You are welcome to embed the Plane Finder playback map on your website to offer visitors a more interactive experience. We suggest using the following HTML code:

<iframe src="//planefinder.net/data/report/AA6206-N695AE-7700-squawk-2021-04-27/map" width="800" height="600" seamless="seamless"></iframe>

Where our data comes from

Plane Finder has a global network of data feeds and antenna radars that receive data broadcast directly from aircraft. The primary technologies used are ADS-B and MLAT. We also show feeds from the FAA and a FLARM glider feed.

Click here to find out more about the Plane Finder network.

How we collect our data